﻿<?xml version="1.0" encoding="UTF-8" standalone="no" ?>
<gpx xmlns="http://www.topografix.com/GPX/1/1" creator="CompeGPS" version="1.1" xmlns:xsi="http://www.w3.org/2001/XMLSchema-instance" xsi:schemaLocation="http://www.topografix.com/GPX/1/1 http://www.topografix.com/GPX/1/1/gpx.xsd http://www.garmin.com/xmlschemas/GpxExtensions/v3 http://www.garmin.com/xmlschemas/GpxExtensionsv3.xsd http://www.garmin.com/xmlschemas/TrackPointExtension/v1 http://www.garmin.com/xmlschemas/TrackPointExtensionv1.xsd" xmlns:gpxtpx="http://www.garmin.com/xmlschemas/TrackPointExtension/v1">
  <metadata>
    <link href="http://www.compegps.com">
      <text>CompeGPS TEAM, SL</text>
    </link>
    <time>2013-02-05T16:57:17Z</time>
    <bounds maxlat="42.939708" maxlon="1.262673" minlat="42.927893" minlon="1.223147"/>
  </metadata>
<wpt lat="42.937204" lon="1.223294">
<ele>956</ele>
<name>Col d Ayens</name>
</wpt>
<wpt lat="42.930930" lon="1.244482">
<ele>1083</ele>
<name>Bifurcation 1083m</name>
</wpt>
<wpt lat="42.939553" lon="1.239975">
<ele>1360</ele>
<name>Pic de Calamane</name>
</wpt>
<wpt lat="42.935282" lon="1.262673">
<ele>1421</ele>
<name>Tuc de la Courate</name>
</wpt>
<wpt lat="42.928089" lon="1.254117">
<ele>1097</ele>
<name>Aire de pique-nique</name>
</wpt>
 <trk>
    <name>Tuc de la Courate</name>
    <trkseg>
      <trkpt lat="42.937204" lon="1.223294">
        <ele>963.9</ele>
        <time>2013-02-05T08:22:33Z</time>
        <name>Col d Ayens</name>
      </trkpt>
      <trkpt lat="42.937153" lon="1.223303">
        <ele>965.3</ele>
        <time>2013-02-05T08:24:03Z</time>
      </trkpt>
      <trkpt lat="42.936998" lon="1.223265">
        <ele>964.3</ele>
        <time>2013-02-05T08:24:19Z</time>
      </trkpt>
      <trkpt lat="42.936883" lon="1.223220">
        <ele>964.3</ele>
        <time>2013-02-05T08:24:37Z</time>
      </trkpt>
      <trkpt lat="42.936896" lon="1.223387">
        <ele>965.3</ele>
        <time>2013-02-05T08:24:51Z</time>
      </trkpt>
      <trkpt lat="42.936948" lon="1.223549">
        <ele>965.8</ele>
        <time>2013-02-05T08:25:05Z</time>
      </trkpt>
      <trkpt lat="42.936984" lon="1.223734">
        <ele>966.7</ele>
        <time>2013-02-05T08:25:20Z</time>
      </trkpt>
      <trkpt lat="42.936996" lon="1.223888">
        <ele>967.7</ele>
        <time>2013-02-05T08:25:34Z</time>
      </trkpt>
      <trkpt lat="42.936997" lon="1.224032">
        <ele>968.2</ele>
        <time>2013-02-05T08:25:47Z</time>
      </trkpt>
      <trkpt lat="42.936987" lon="1.224199">
        <ele>969.6</ele>
        <time>2013-02-05T08:26:02Z</time>
      </trkpt>
      <trkpt lat="42.936909" lon="1.224371">
        <ele>971.1</ele>
        <time>2013-02-05T08:26:19Z</time>
      </trkpt>
      <trkpt lat="42.936886" lon="1.224589">
        <ele>971.5</ele>
        <time>2013-02-05T08:26:35Z</time>
      </trkpt>
      <trkpt lat="42.936903" lon="1.224748">
        <ele>969.6</ele>
        <time>2013-02-05T08:26:49Z</time>
      </trkpt>
      <trkpt lat="42.936939" lon="1.224916">
        <ele>974.4</ele>
        <time>2013-02-05T08:27:03Z</time>
      </trkpt>
      <trkpt lat="42.936962" lon="1.225068">
        <ele>975.4</ele>
        <time>2013-02-05T08:27:16Z</time>
      </trkpt>
      <trkpt lat="42.937002" lon="1.225214">
        <ele>975.9</ele>
        <time>2013-02-05T08:27:29Z</time>
      </trkpt>
      <trkpt lat="42.937038" lon="1.225367">
        <ele>976.4</ele>
        <time>2013-02-05T08:27:43Z</time>
      </trkpt>
      <trkpt lat="42.937062" lon="1.225522">
        <ele>977.3</ele>
        <time>2013-02-05T08:27:59Z</time>
      </trkpt>
      <trkpt lat="42.937055" lon="1.225720">
        <ele>978.3</ele>
        <time>2013-02-05T08:28:13Z</time>
      </trkpt>
      <trkpt lat="42.936995" lon="1.225905">
        <ele>979.7</ele>
        <time>2013-02-05T08:28:28Z</time>
      </trkpt>
      <trkpt lat="42.936939" lon="1.226036">
        <ele>980.7</ele>
        <time>2013-02-05T08:28:40Z</time>
      </trkpt>
      <trkpt lat="42.936867" lon="1.226114">
        <ele>982.1</ele>
        <time>2013-02-05T08:28:53Z</time>
      </trkpt>
      <trkpt lat="42.936789" lon="1.226240">
        <ele>982.6</ele>
        <time>2013-02-05T08:29:05Z</time>
      </trkpt>
      <trkpt lat="42.936732" lon="1.226361">
        <ele>983.6</ele>
        <time>2013-02-05T08:29:17Z</time>
      </trkpt>
      <trkpt lat="42.936677" lon="1.226504">
        <ele>985.0</ele>
        <time>2013-02-05T08:29:30Z</time>
      </trkpt>
      <trkpt lat="42.936602" lon="1.226630">
        <ele>986.0</ele>
        <time>2013-02-05T08:29:43Z</time>
      </trkpt>
      <trkpt lat="42.936536" lon="1.226760">
        <ele>986.9</ele>
        <time>2013-02-05T08:29:56Z</time>
      </trkpt>
      <trkpt lat="42.936495" lon="1.226907">
        <ele>987.9</ele>
        <time>2013-02-05T08:30:09Z</time>
      </trkpt>
      <trkpt lat="42.936441" lon="1.227028">
        <ele>988.8</ele>
        <time>2013-02-05T08:30:23Z</time>
      </trkpt>
      <trkpt lat="42.936451" lon="1.227209">
        <ele>990.3</ele>
        <time>2013-02-05T08:30:38Z</time>
      </trkpt>
      <trkpt lat="42.936426" lon="1.227390">
        <ele>991.7</ele>
        <time>2013-02-05T08:30:57Z</time>
      </trkpt>
      <trkpt lat="42.936456" lon="1.227665">
        <ele>993.7</ele>
        <time>2013-02-05T08:31:17Z</time>
      </trkpt>
      <trkpt lat="42.936489" lon="1.227894">
        <ele>995.6</ele>
        <time>2013-02-05T08:31:37Z</time>
      </trkpt>
      <trkpt lat="42.936484" lon="1.228123">
        <ele>997.0</ele>
        <time>2013-02-05T08:31:56Z</time>
      </trkpt>
      <trkpt lat="42.936489" lon="1.228306">
        <ele>998.0</ele>
        <time>2013-02-05T08:32:10Z</time>
      </trkpt>
      <trkpt lat="42.936467" lon="1.228489">
        <ele>999.0</ele>
        <time>2013-02-05T08:33:00Z</time>
      </trkpt>
      <trkpt lat="42.936504" lon="1.228641">
        <ele>999.9</ele>
        <time>2013-02-05T08:34:16Z</time>
      </trkpt>
      <trkpt lat="42.936503" lon="1.228792">
        <ele>1001.3</ele>
        <time>2013-02-05T08:34:29Z</time>
      </trkpt>
      <trkpt lat="42.936498" lon="1.228967">
        <ele>1002.8</ele>
        <time>2013-02-05T08:34:39Z</time>
      </trkpt>
      <trkpt lat="42.936490" lon="1.229134">
        <ele>1002.8</ele>
        <time>2013-02-05T08:34:50Z</time>
      </trkpt>
      <trkpt lat="42.936460" lon="1.229279">
        <ele>1003.8</ele>
        <time>2013-02-05T08:35:02Z</time>
      </trkpt>
      <trkpt lat="42.936430" lon="1.229417">
        <ele>1005.2</ele>
        <time>2013-02-05T08:35:13Z</time>
      </trkpt>
      <trkpt lat="42.936422" lon="1.229600">
        <ele>1006.6</ele>
        <time>2013-02-05T08:35:26Z</time>
      </trkpt>
      <trkpt lat="42.936475" lon="1.229839">
        <ele>1008.1</ele>
        <time>2013-02-05T08:35:39Z</time>
      </trkpt>
      <trkpt lat="42.936453" lon="1.230073">
        <ele>1009.5</ele>
        <time>2013-02-05T08:35:53Z</time>
      </trkpt>
      <trkpt lat="42.936422" lon="1.230254">
        <ele>1010.0</ele>
        <time>2013-02-05T08:36:05Z</time>
      </trkpt>
      <trkpt lat="42.936370" lon="1.230396">
        <ele>1011.4</ele>
        <time>2013-02-05T08:36:15Z</time>
      </trkpt>
      <trkpt lat="42.936306" lon="1.230526">
        <ele>1012.4</ele>
        <time>2013-02-05T08:36:26Z</time>
      </trkpt>
      <trkpt lat="42.936252" lon="1.230652">
        <ele>1013.4</ele>
        <time>2013-02-05T08:36:37Z</time>
      </trkpt>
      <trkpt lat="42.936175" lon="1.230774">
        <ele>1014.3</ele>
        <time>2013-02-05T08:36:48Z</time>
      </trkpt>
      <trkpt lat="42.936096" lon="1.230893">
        <ele>1015.3</ele>
        <time>2013-02-05T08:36:59Z</time>
      </trkpt>
      <trkpt lat="42.935992" lon="1.230959">
        <ele>1016.2</ele>
        <time>2013-02-05T08:37:10Z</time>
      </trkpt>
      <trkpt lat="42.935898" lon="1.231071">
        <ele>1017.7</ele>
        <time>2013-02-05T08:37:22Z</time>
      </trkpt>
      <trkpt lat="42.935817" lon="1.231167">
        <ele>1018.2</ele>
        <time>2013-02-05T08:37:32Z</time>
      </trkpt>
      <trkpt lat="42.935729" lon="1.231263">
        <ele>1019.1</ele>
        <time>2013-02-05T08:37:41Z</time>
      </trkpt>
      <trkpt lat="42.935642" lon="1.231352">
        <ele>1020.1</ele>
        <time>2013-02-05T08:37:51Z</time>
      </trkpt>
      <trkpt lat="42.935552" lon="1.231446">
        <ele>1021.1</ele>
        <time>2013-02-05T08:38:01Z</time>
      </trkpt>
      <trkpt lat="42.935461" lon="1.231570">
        <ele>1022.0</ele>
        <time>2013-02-05T08:38:13Z</time>
      </trkpt>
      <trkpt lat="42.935362" lon="1.231663">
        <ele>1023.0</ele>
        <time>2013-02-05T08:38:24Z</time>
      </trkpt>
      <trkpt lat="42.935262" lon="1.231763">
        <ele>1023.9</ele>
        <time>2013-02-05T08:38:35Z</time>
      </trkpt>
      <trkpt lat="42.935162" lon="1.231856">
        <ele>1025.4</ele>
        <time>2013-02-05T08:38:47Z</time>
      </trkpt>
      <trkpt lat="42.935069" lon="1.231953">
        <ele>1026.8</ele>
        <time>2013-02-05T08:38:59Z</time>
      </trkpt>
      <trkpt lat="42.934979" lon="1.232110">
        <ele>1028.3</ele>
        <time>2013-02-05T08:39:12Z</time>
      </trkpt>
      <trkpt lat="42.934901" lon="1.232220">
        <ele>1028.8</ele>
        <time>2013-02-05T08:39:23Z</time>
      </trkpt>
      <trkpt lat="42.934835" lon="1.232333">
        <ele>1029.7</ele>
        <time>2013-02-05T08:39:34Z</time>
      </trkpt>
      <trkpt lat="42.934769" lon="1.232472">
        <ele>1031.2</ele>
        <time>2013-02-05T08:39:46Z</time>
      </trkpt>
      <trkpt lat="42.934713" lon="1.232619">
        <ele>1031.6</ele>
        <time>2013-02-05T08:39:57Z</time>
      </trkpt>
      <trkpt lat="42.934668" lon="1.232761">
        <ele>1032.6</ele>
        <time>2013-02-05T08:40:08Z</time>
      </trkpt>
      <trkpt lat="42.934661" lon="1.232880">
        <ele>1033.6</ele>
        <time>2013-02-05T08:40:49Z</time>
      </trkpt>
      <trkpt lat="42.934596" lon="1.233027">
        <ele>1035.0</ele>
        <time>2013-02-05T08:41:03Z</time>
      </trkpt>
      <trkpt lat="42.934587" lon="1.233192">
        <ele>1035.5</ele>
        <time>2013-02-05T08:41:16Z</time>
      </trkpt>
      <trkpt lat="42.934589" lon="1.233397">
        <ele>1037.9</ele>
        <time>2013-02-05T08:41:35Z</time>
      </trkpt>
      <trkpt lat="42.934601" lon="1.233674">
        <ele>1038.4</ele>
        <time>2013-02-05T08:41:51Z</time>
      </trkpt>
      <trkpt lat="42.934570" lon="1.233835">
        <ele>1039.8</ele>
        <time>2013-02-05T08:42:03Z</time>
      </trkpt>
      <trkpt lat="42.934504" lon="1.234005">
        <ele>1040.8</ele>
        <time>2013-02-05T08:42:13Z</time>
      </trkpt>
      <trkpt lat="42.934445" lon="1.234128">
        <ele>1041.7</ele>
        <time>2013-02-05T08:42:22Z</time>
      </trkpt>
      <trkpt lat="42.934355" lon="1.234215">
        <ele>1042.7</ele>
        <time>2013-02-05T08:42:34Z</time>
      </trkpt>
      <trkpt lat="42.934264" lon="1.234307">
        <ele>1043.7</ele>
        <time>2013-02-05T08:42:46Z</time>
      </trkpt>
      <trkpt lat="42.934181" lon="1.234391">
        <ele>1044.6</ele>
        <time>2013-02-05T08:42:56Z</time>
      </trkpt>
      <trkpt lat="42.934093" lon="1.234507">
        <ele>1045.1</ele>
        <time>2013-02-05T08:43:08Z</time>
      </trkpt>
      <trkpt lat="42.934010" lon="1.234600">
        <ele>1046.5</ele>
        <time>2013-02-05T08:43:19Z</time>
      </trkpt>
      <trkpt lat="42.933938" lon="1.234732">
        <ele>1048.0</ele>
        <time>2013-02-05T08:43:30Z</time>
      </trkpt>
      <trkpt lat="42.933851" lon="1.234814">
        <ele>1048.4</ele>
        <time>2013-02-05T08:43:40Z</time>
      </trkpt>
      <trkpt lat="42.933797" lon="1.234978">
        <ele>1050.4</ele>
        <time>2013-02-05T08:43:51Z</time>
      </trkpt>
      <trkpt lat="42.933742" lon="1.235144">
        <ele>1050.4</ele>
        <time>2013-02-05T08:44:04Z</time>
      </trkpt>
      <trkpt lat="42.933698" lon="1.235345">
        <ele>1051.3</ele>
        <time>2013-02-05T08:44:16Z</time>
      </trkpt>
      <trkpt lat="42.933690" lon="1.235502">
        <ele>1052.3</ele>
        <time>2013-02-05T08:44:27Z</time>
      </trkpt>
      <trkpt lat="42.933681" lon="1.235659">
        <ele>1053.7</ele>
        <time>2013-02-05T08:44:40Z</time>
      </trkpt>
      <trkpt lat="42.933716" lon="1.235825">
        <ele>1054.2</ele>
        <time>2013-02-05T08:44:57Z</time>
      </trkpt>
      <trkpt lat="42.933744" lon="1.235983">
        <ele>1056.2</ele>
        <time>2013-02-05T08:45:12Z</time>
      </trkpt>
      <trkpt lat="42.933775" lon="1.236212">
        <ele>1056.6</ele>
        <time>2013-02-05T08:45:44Z</time>
      </trkpt>
      <trkpt lat="42.933805" lon="1.236411">
        <ele>1058.1</ele>
        <time>2013-02-05T08:46:01Z</time>
      </trkpt>
      <trkpt lat="42.933759" lon="1.236599">
        <ele>1059.5</ele>
        <time>2013-02-05T08:46:14Z</time>
      </trkpt>
      <trkpt lat="42.933706" lon="1.236761">
        <ele>1060.0</ele>
        <time>2013-02-05T08:46:24Z</time>
      </trkpt>
      <trkpt lat="42.933628" lon="1.236877">
        <ele>1060.9</ele>
        <time>2013-02-05T08:46:34Z</time>
      </trkpt>
      <trkpt lat="42.933548" lon="1.236994">
        <ele>1061.4</ele>
        <time>2013-02-05T08:46:44Z</time>
      </trkpt>
      <trkpt lat="42.933470" lon="1.237107">
        <ele>1062.4</ele>
        <time>2013-02-05T08:46:54Z</time>
      </trkpt>
      <trkpt lat="42.933401" lon="1.237220">
        <ele>1063.4</ele>
        <time>2013-02-05T08:47:04Z</time>
      </trkpt>
      <trkpt lat="42.933317" lon="1.237302">
        <ele>1064.3</ele>
        <time>2013-02-05T08:47:13Z</time>
      </trkpt>
      <trkpt lat="42.933241" lon="1.237389">
        <ele>1065.3</ele>
        <time>2013-02-05T08:47:22Z</time>
      </trkpt>
      <trkpt lat="42.933155" lon="1.237481">
        <ele>1066.2</ele>
        <time>2013-02-05T08:47:32Z</time>
      </trkpt>
      <trkpt lat="42.933083" lon="1.237593">
        <ele>1067.2</ele>
        <time>2013-02-05T08:47:42Z</time>
      </trkpt>
      <trkpt lat="42.933001" lon="1.237690">
        <ele>1067.7</ele>
        <time>2013-02-05T08:47:53Z</time>
      </trkpt>
      <trkpt lat="42.932926" lon="1.237778">
        <ele>1068.6</ele>
        <time>2013-02-05T08:48:02Z</time>
      </trkpt>
      <trkpt lat="42.932836" lon="1.237868">
        <ele>1069.1</ele>
        <time>2013-02-05T08:48:11Z</time>
      </trkpt>
      <trkpt lat="42.932761" lon="1.237952">
        <ele>1070.6</ele>
        <time>2013-02-05T08:48:20Z</time>
      </trkpt>
      <trkpt lat="42.932694" lon="1.238052">
        <ele>1071.5</ele>
        <time>2013-02-05T08:48:29Z</time>
      </trkpt>
      <trkpt lat="42.932607" lon="1.238134">
        <ele>1072.5</ele>
        <time>2013-02-05T08:48:38Z</time>
      </trkpt>
      <trkpt lat="42.932528" lon="1.238216">
        <ele>1073.4</ele>
        <time>2013-02-05T08:48:47Z</time>
      </trkpt>
      <trkpt lat="42.932462" lon="1.238318">
        <ele>1074.4</ele>
        <time>2013-02-05T08:48:56Z</time>
      </trkpt>
      <trkpt lat="42.932386" lon="1.238405">
        <ele>1074.4</ele>
        <time>2013-02-05T08:49:06Z</time>
      </trkpt>
      <trkpt lat="42.932309" lon="1.238493">
        <ele>1075.4</ele>
        <time>2013-02-05T08:49:16Z</time>
      </trkpt>
      <trkpt lat="42.932240" lon="1.238599">
        <ele>1076.8</ele>
        <time>2013-02-05T08:49:26Z</time>
      </trkpt>
      <trkpt lat="42.932174" lon="1.238723">
        <ele>1077.3</ele>
        <time>2013-02-05T08:49:36Z</time>
      </trkpt>
      <trkpt lat="42.932113" lon="1.238826">
        <ele>1078.3</ele>
        <time>2013-02-05T08:49:46Z</time>
      </trkpt>
      <trkpt lat="42.932091" lon="1.238936">
        <ele>1078.7</ele>
        <time>2013-02-05T08:51:23Z</time>
      </trkpt>
      <trkpt lat="42.932054" lon="1.239109">
        <ele>1079.2</ele>
        <time>2013-02-05T08:51:34Z</time>
      </trkpt>
      <trkpt lat="42.932024" lon="1.239231">
        <ele>1080.2</ele>
        <time>2013-02-05T08:51:43Z</time>
      </trkpt>
      <trkpt lat="42.932014" lon="1.239377">
        <ele>1081.1</ele>
        <time>2013-02-05T08:51:53Z</time>
      </trkpt>
      <trkpt lat="42.932035" lon="1.239516">
        <ele>1082.1</ele>
        <time>2013-02-05T08:52:03Z</time>
      </trkpt>
      <trkpt lat="42.932060" lon="1.239633">
        <ele>1082.1</ele>
        <time>2013-02-05T08:52:17Z</time>
      </trkpt>
      <trkpt lat="42.932089" lon="1.239790">
        <ele>1083.1</ele>
        <time>2013-02-05T08:52:32Z</time>
      </trkpt>
      <trkpt lat="42.932111" lon="1.239941">
        <ele>1082.6</ele>
        <time>2013-02-05T08:52:43Z</time>
      </trkpt>
      <trkpt lat="42.932150" lon="1.240124">
        <ele>1083.5</ele>
        <time>2013-02-05T08:52:55Z</time>
      </trkpt>
      <trkpt lat="42.932186" lon="1.240324">
        <ele>1084.0</ele>
        <time>2013-02-05T08:53:08Z</time>
      </trkpt>
      <trkpt lat="42.932213" lon="1.240530">
        <ele>1084.0</ele>
        <time>2013-02-05T08:53:20Z</time>
      </trkpt>
      <trkpt lat="42.932222" lon="1.240722">
        <ele>1085.0</ele>
        <time>2013-02-05T08:53:32Z</time>
      </trkpt>
      <trkpt lat="42.932210" lon="1.240881">
        <ele>1084.5</ele>
        <time>2013-02-05T08:53:45Z</time>
      </trkpt>
      <trkpt lat="42.932204" lon="1.241088">
        <ele>1085.0</ele>
        <time>2013-02-05T08:53:58Z</time>
      </trkpt>
      <trkpt lat="42.932206" lon="1.241384">
        <ele>1085.5</ele>
        <time>2013-02-05T08:54:13Z</time>
      </trkpt>
      <trkpt lat="42.932205" lon="1.241586">
        <ele>1084.5</ele>
        <time>2013-02-05T08:54:34Z</time>
      </trkpt>
      <trkpt lat="42.932129" lon="1.241721">
        <ele>1084.5</ele>
        <time>2013-02-05T08:54:46Z</time>
      </trkpt>
      <trkpt lat="42.932102" lon="1.241924">
        <ele>1084.5</ele>
        <time>2013-02-05T08:54:59Z</time>
      </trkpt>
      <trkpt lat="42.932045" lon="1.242097">
        <ele>1084.5</ele>
        <time>2013-02-05T08:55:11Z</time>
      </trkpt>
      <trkpt lat="42.931985" lon="1.242225">
        <ele>1084.5</ele>
        <time>2013-02-05T08:55:21Z</time>
      </trkpt>
      <trkpt lat="42.931903" lon="1.242318">
        <ele>1085.9</ele>
        <time>2013-02-05T08:55:33Z</time>
      </trkpt>
      <trkpt lat="42.931811" lon="1.242455">
        <ele>1084.0</ele>
        <time>2013-02-05T08:55:49Z</time>
      </trkpt>
      <trkpt lat="42.931735" lon="1.242597">
        <ele>1085.0</ele>
        <time>2013-02-05T08:56:00Z</time>
      </trkpt>
      <trkpt lat="42.931649" lon="1.242693">
        <ele>1085.5</ele>
        <time>2013-02-05T08:56:11Z</time>
      </trkpt>
      <trkpt lat="42.931593" lon="1.242833">
        <ele>1085.5</ele>
        <time>2013-02-05T08:56:24Z</time>
      </trkpt>
      <trkpt lat="42.931521" lon="1.242866">
        <ele>1085.0</ele>
        <time>2013-02-05T08:56:55Z</time>
      </trkpt>
      <trkpt lat="42.931427" lon="1.243039">
        <ele>1084.5</ele>
        <time>2013-02-05T08:57:07Z</time>
      </trkpt>
      <trkpt lat="42.931365" lon="1.243144">
        <ele>1085.0</ele>
        <time>2013-02-05T08:57:17Z</time>
      </trkpt>
      <trkpt lat="42.931280" lon="1.243205">
        <ele>1085.0</ele>
        <time>2013-02-05T08:57:27Z</time>
      </trkpt>
      <trkpt lat="42.931211" lon="1.243312">
        <ele>1085.0</ele>
        <time>2013-02-05T08:57:39Z</time>
      </trkpt>
      <trkpt lat="42.931143" lon="1.243476">
        <ele>1085.0</ele>
        <time>2013-02-05T08:57:51Z</time>
      </trkpt>
      <trkpt lat="42.931103" lon="1.243625">
        <ele>1085.5</ele>
        <time>2013-02-05T08:58:03Z</time>
      </trkpt>
      <trkpt lat="42.931036" lon="1.243774">
        <ele>1085.0</ele>
        <time>2013-02-05T08:58:16Z</time>
      </trkpt>
      <trkpt lat="42.931003" lon="1.243932">
        <ele>1085.0</ele>
        <time>2013-02-05T08:58:29Z</time>
      </trkpt>
      <trkpt lat="42.930969" lon="1.244091">
        <ele>1084.5</ele>
        <time>2013-02-05T08:58:42Z</time>
      </trkpt>
      <trkpt lat="42.930975" lon="1.244295">
        <ele>1084.0</ele>
        <time>2013-02-05T08:58:57Z</time>
      </trkpt>
      <trkpt lat="42.930957" lon="1.244447">
        <ele>1085.0</ele>
        <time>2013-02-05T08:59:12Z</time>
      </trkpt>
      <trkpt lat="42.930872" lon="1.244469">
        <ele>1085.9</ele>
        <time>2013-02-05T09:00:22Z</time>
      </trkpt>
      <trkpt lat="42.930930" lon="1.244482">
        <ele>1086.4</ele>
        <time>2013-02-05T09:05:25Z</time>
        <name>Bifurcation 1083m</name>
      </trkpt>
      <trkpt lat="42.930975" lon="1.244376">
        <ele>1087.9</ele>
        <time>2013-02-05T09:05:40Z</time>
      </trkpt>
      <trkpt lat="42.931021" lon="1.244252">
        <ele>1090.8</ele>
        <time>2013-02-05T09:05:55Z</time>
      </trkpt>
      <trkpt lat="42.931037" lon="1.244128">
        <ele>1091.2</ele>
        <time>2013-02-05T09:06:08Z</time>
      </trkpt>
      <trkpt lat="42.931082" lon="1.244013">
        <ele>1092.7</ele>
        <time>2013-02-05T09:06:20Z</time>
      </trkpt>
      <trkpt lat="42.931167" lon="1.243892">
        <ele>1094.1</ele>
        <time>2013-02-05T09:06:36Z</time>
      </trkpt>
      <trkpt lat="42.931233" lon="1.243754">
        <ele>1097.0</ele>
        <time>2013-02-05T09:06:56Z</time>
      </trkpt>
      <trkpt lat="42.931323" lon="1.243625">
        <ele>1098.9</ele>
        <time>2013-02-05T09:07:13Z</time>
      </trkpt>
      <trkpt lat="42.931403" lon="1.243534">
        <ele>1100.4</ele>
        <time>2013-02-05T09:07:31Z</time>
      </trkpt>
      <trkpt lat="42.931489" lon="1.243434">
        <ele>1102.8</ele>
        <time>2013-02-05T09:07:49Z</time>
      </trkpt>
      <trkpt lat="42.931582" lon="1.243378">
        <ele>1105.7</ele>
        <time>2013-02-05T09:08:05Z</time>
      </trkpt>
      <trkpt lat="42.931666" lon="1.243260">
        <ele>1106.6</ele>
        <time>2013-02-05T09:08:25Z</time>
      </trkpt>
      <trkpt lat="42.931752" lon="1.243160">
        <ele>1109.5</ele>
        <time>2013-02-05T09:08:43Z</time>
      </trkpt>
      <trkpt lat="42.931862" lon="1.243053">
        <ele>1110.9</ele>
        <time>2013-02-05T09:09:01Z</time>
      </trkpt>
      <trkpt lat="42.931955" lon="1.242983">
        <ele>1112.9</ele>
        <time>2013-02-05T09:09:19Z</time>
      </trkpt>
      <trkpt lat="42.932097" lon="1.242911">
        <ele>1115.8</ele>
        <time>2013-02-05T09:09:41Z</time>
      </trkpt>
      <trkpt lat="42.932197" lon="1.242839">
        <ele>1117.7</ele>
        <time>2013-02-05T09:10:01Z</time>
      </trkpt>
      <trkpt lat="42.932307" lon="1.242788">
        <ele>1119.6</ele>
        <time>2013-02-05T09:10:16Z</time>
      </trkpt>
      <trkpt lat="42.932399" lon="1.242724">
        <ele>1120.6</ele>
        <time>2013-02-05T09:10:32Z</time>
      </trkpt>
      <trkpt lat="42.932473" lon="1.242654">
        <ele>1123.0</ele>
        <time>2013-02-05T09:10:47Z</time>
      </trkpt>
      <trkpt lat="42.932565" lon="1.242550">
        <ele>1125.4</ele>
        <time>2013-02-05T09:11:06Z</time>
      </trkpt>
      <trkpt lat="42.932592" lon="1.242464">
        <ele>1126.8</ele>
        <time>2013-02-05T09:11:54Z</time>
      </trkpt>
      <trkpt lat="42.932636" lon="1.242328">
        <ele>1127.3</ele>
        <time>2013-02-05T09:12:10Z</time>
      </trkpt>
      <trkpt lat="42.932711" lon="1.242170">
        <ele>1128.7</ele>
        <time>2013-02-05T09:12:52Z</time>
      </trkpt>
      <trkpt lat="42.932778" lon="1.242046">
        <ele>1131.1</ele>
        <time>2013-02-05T09:13:10Z</time>
      </trkpt>
      <trkpt lat="42.932870" lon="1.241910">
        <ele>1132.6</ele>
        <time>2013-02-05T09:13:29Z</time>
      </trkpt>
      <trkpt lat="42.932901" lon="1.241785">
        <ele>1135.0</ele>
        <time>2013-02-05T09:13:47Z</time>
      </trkpt>
      <trkpt lat="42.932941" lon="1.241662">
        <ele>1138.3</ele>
        <time>2013-02-05T09:14:04Z</time>
      </trkpt>
      <trkpt lat="42.932972" lon="1.241509">
        <ele>1139.8</ele>
        <time>2013-02-05T09:14:23Z</time>
      </trkpt>
      <trkpt lat="42.933018" lon="1.241343">
        <ele>1142.2</ele>
        <time>2013-02-05T09:14:43Z</time>
      </trkpt>
      <trkpt lat="42.933032" lon="1.241204">
        <ele>1143.6</ele>
        <time>2013-02-05T09:15:01Z</time>
      </trkpt>
      <trkpt lat="42.933050" lon="1.241065">
        <ele>1146.5</ele>
        <time>2013-02-05T09:15:22Z</time>
      </trkpt>
      <trkpt lat="42.933109" lon="1.240909">
        <ele>1149.4</ele>
        <time>2013-02-05T09:15:43Z</time>
      </trkpt>
      <trkpt lat="42.933149" lon="1.240766">
        <ele>1150.3</ele>
        <time>2013-02-05T09:16:03Z</time>
      </trkpt>
      <trkpt lat="42.933189" lon="1.240659">
        <ele>1152.8</ele>
        <time>2013-02-05T09:16:20Z</time>
      </trkpt>
      <trkpt lat="42.933297" lon="1.240508">
        <ele>1155.2</ele>
        <time>2013-02-05T09:16:42Z</time>
      </trkpt>
      <trkpt lat="42.933388" lon="1.240388">
        <ele>1156.6</ele>
        <time>2013-02-05T09:17:03Z</time>
      </trkpt>
      <trkpt lat="42.933485" lon="1.240225">
        <ele>1159.5</ele>
        <time>2013-02-05T09:17:27Z</time>
      </trkpt>
      <trkpt lat="42.933594" lon="1.240103">
        <ele>1160.9</ele>
        <time>2013-02-05T09:17:49Z</time>
      </trkpt>
      <trkpt lat="42.933681" lon="1.240007">
        <ele>1162.8</ele>
        <time>2013-02-05T09:18:09Z</time>
      </trkpt>
      <trkpt lat="42.933787" lon="1.239916">
        <ele>1165.3</ele>
        <time>2013-02-05T09:18:34Z</time>
      </trkpt>
      <trkpt lat="42.933900" lon="1.239849">
        <ele>1167.7</ele>
        <time>2013-02-05T09:18:54Z</time>
      </trkpt>
      <trkpt lat="42.933993" lon="1.239816">
        <ele>1169.6</ele>
        <time>2013-02-05T09:19:11Z</time>
      </trkpt>
      <trkpt lat="42.934097" lon="1.239739">
        <ele>1170.5</ele>
        <time>2013-02-05T09:19:31Z</time>
      </trkpt>
      <trkpt lat="42.934216" lon="1.239643">
        <ele>1172.5</ele>
        <time>2013-02-05T09:19:52Z</time>
      </trkpt>
      <trkpt lat="42.934322" lon="1.239596">
        <ele>1174.9</ele>
        <time>2013-02-05T09:20:12Z</time>
      </trkpt>
      <trkpt lat="42.934420" lon="1.239514">
        <ele>1176.8</ele>
        <time>2013-02-05T09:20:32Z</time>
      </trkpt>
      <trkpt lat="42.934504" lon="1.239428">
        <ele>1179.2</ele>
        <time>2013-02-05T09:20:53Z</time>
      </trkpt>
      <trkpt lat="42.934570" lon="1.239390">
        <ele>1181.6</ele>
        <time>2013-02-05T09:22:15Z</time>
      </trkpt>
      <trkpt lat="42.934654" lon="1.239358">
        <ele>1183.5</ele>
        <time>2013-02-05T09:24:54Z</time>
      </trkpt>
      <trkpt lat="42.934768" lon="1.239307">
        <ele>1185.9</ele>
        <time>2013-02-05T09:25:11Z</time>
      </trkpt>
      <trkpt lat="42.934930" lon="1.239229">
        <ele>1188.3</ele>
        <time>2013-02-05T09:25:32Z</time>
      </trkpt>
      <trkpt lat="42.935064" lon="1.239169">
        <ele>1189.8</ele>
        <time>2013-02-05T09:26:22Z</time>
      </trkpt>
      <trkpt lat="42.935250" lon="1.239042">
        <ele>1194.6</ele>
        <time>2013-02-05T09:27:32Z</time>
      </trkpt>
      <trkpt lat="42.935373" lon="1.238970">
        <ele>1197.5</ele>
        <time>2013-02-05T09:27:51Z</time>
      </trkpt>
      <trkpt lat="42.935445" lon="1.238856">
        <ele>1198.4</ele>
        <time>2013-02-05T09:28:10Z</time>
      </trkpt>
      <trkpt lat="42.935486" lon="1.238713">
        <ele>1200.8</ele>
        <time>2013-02-05T09:28:28Z</time>
      </trkpt>
      <trkpt lat="42.935511" lon="1.238544">
        <ele>1202.8</ele>
        <time>2013-02-05T09:28:44Z</time>
      </trkpt>
      <trkpt lat="42.935508" lon="1.238422">
        <ele>1202.3</ele>
        <time>2013-02-05T09:29:28Z</time>
      </trkpt>
      <trkpt lat="42.935610" lon="1.238267">
        <ele>1202.8</ele>
        <time>2013-02-05T09:29:45Z</time>
      </trkpt>
      <trkpt lat="42.935686" lon="1.238119">
        <ele>1205.2</ele>
        <time>2013-02-05T09:30:00Z</time>
      </trkpt>
      <trkpt lat="42.935845" lon="1.237944">
        <ele>1208.0</ele>
        <time>2013-02-05T09:30:25Z</time>
      </trkpt>
      <trkpt lat="42.935954" lon="1.237886">
        <ele>1209.5</ele>
        <time>2013-02-05T09:30:46Z</time>
      </trkpt>
      <trkpt lat="42.936077" lon="1.237807">
        <ele>1212.4</ele>
        <time>2013-02-05T09:31:07Z</time>
      </trkpt>
      <trkpt lat="42.936177" lon="1.237705">
        <ele>1215.2</ele>
        <time>2013-02-05T09:31:29Z</time>
      </trkpt>
      <trkpt lat="42.936322" lon="1.237631">
        <ele>1217.2</ele>
        <time>2013-02-05T09:31:54Z</time>
      </trkpt>
      <trkpt lat="42.936433" lon="1.237548">
        <ele>1221.5</ele>
        <time>2013-02-05T09:32:16Z</time>
      </trkpt>
      <trkpt lat="42.936570" lon="1.237508">
        <ele>1222.9</ele>
        <time>2013-02-05T09:32:36Z</time>
      </trkpt>
      <trkpt lat="42.936669" lon="1.237439">
        <ele>1225.3</ele>
        <time>2013-02-05T09:32:55Z</time>
      </trkpt>
      <trkpt lat="42.936780" lon="1.237400">
        <ele>1227.3</ele>
        <time>2013-02-05T09:33:17Z</time>
      </trkpt>
      <trkpt lat="42.936905" lon="1.237358">
        <ele>1230.6</ele>
        <time>2013-02-05T09:33:38Z</time>
      </trkpt>
      <trkpt lat="42.937026" lon="1.237316">
        <ele>1231.6</ele>
        <time>2013-02-05T09:33:57Z</time>
      </trkpt>
      <trkpt lat="42.937139" lon="1.237211">
        <ele>1234.5</ele>
        <time>2013-02-05T09:34:16Z</time>
      </trkpt>
      <trkpt lat="42.937270" lon="1.237054">
        <ele>1238.3</ele>
        <time>2013-02-05T09:34:40Z</time>
      </trkpt>
      <trkpt lat="42.937384" lon="1.236952">
        <ele>1240.2</ele>
        <time>2013-02-05T09:35:03Z</time>
      </trkpt>
      <trkpt lat="42.937550" lon="1.236809">
        <ele>1242.6</ele>
        <time>2013-02-05T09:35:26Z</time>
      </trkpt>
      <trkpt lat="42.937670" lon="1.236730">
        <ele>1244.6</ele>
        <time>2013-02-05T09:35:48Z</time>
      </trkpt>
      <trkpt lat="42.937713" lon="1.236601">
        <ele>1246.0</ele>
        <time>2013-02-05T09:36:36Z</time>
      </trkpt>
      <trkpt lat="42.937885" lon="1.236525">
        <ele>1248.9</ele>
        <time>2013-02-05T09:36:59Z</time>
      </trkpt>
      <trkpt lat="42.938040" lon="1.236468">
        <ele>1252.2</ele>
        <time>2013-02-05T09:37:21Z</time>
      </trkpt>
      <trkpt lat="42.938155" lon="1.236414">
        <ele>1254.2</ele>
        <time>2013-02-05T09:37:39Z</time>
      </trkpt>
      <trkpt lat="42.938264" lon="1.236370">
        <ele>1256.1</ele>
        <time>2013-02-05T09:37:59Z</time>
      </trkpt>
      <trkpt lat="42.938352" lon="1.236306">
        <ele>1258.5</ele>
        <time>2013-02-05T09:38:15Z</time>
      </trkpt>
      <trkpt lat="42.938462" lon="1.236228">
        <ele>1259.5</ele>
        <time>2013-02-05T09:38:34Z</time>
      </trkpt>
      <trkpt lat="42.938565" lon="1.236131">
        <ele>1262.3</ele>
        <time>2013-02-05T09:38:55Z</time>
      </trkpt>
      <trkpt lat="42.938657" lon="1.236069">
        <ele>1262.8</ele>
        <time>2013-02-05T09:39:15Z</time>
      </trkpt>
      <trkpt lat="42.938742" lon="1.236034">
        <ele>1264.8</ele>
        <time>2013-02-05T09:39:31Z</time>
      </trkpt>
      <trkpt lat="42.938841" lon="1.235928">
        <ele>1268.1</ele>
        <time>2013-02-05T09:39:51Z</time>
      </trkpt>
      <trkpt lat="42.938948" lon="1.235803">
        <ele>1271.0</ele>
        <time>2013-02-05T09:40:14Z</time>
      </trkpt>
      <trkpt lat="42.939017" lon="1.235666">
        <ele>1272.4</ele>
        <time>2013-02-05T09:40:36Z</time>
      </trkpt>
      <trkpt lat="42.939074" lon="1.235555">
        <ele>1274.4</ele>
        <time>2013-02-05T09:40:53Z</time>
      </trkpt>
      <trkpt lat="42.939155" lon="1.235472">
        <ele>1275.8</ele>
        <time>2013-02-05T09:41:08Z</time>
      </trkpt>
      <trkpt lat="42.939237" lon="1.235389">
        <ele>1277.2</ele>
        <time>2013-02-05T09:41:24Z</time>
      </trkpt>
      <trkpt lat="42.939391" lon="1.235286">
        <ele>1278.2</ele>
        <time>2013-02-05T09:41:41Z</time>
      </trkpt>
      <trkpt lat="42.939458" lon="1.235523">
        <ele>1281.1</ele>
        <time>2013-02-05T09:43:17Z</time>
      </trkpt>
      <trkpt lat="42.939443" lon="1.235673">
        <ele>1285.4</ele>
        <time>2013-02-05T09:43:54Z</time>
      </trkpt>
      <trkpt lat="42.939450" lon="1.235811">
        <ele>1287.3</ele>
        <time>2013-02-05T09:44:11Z</time>
      </trkpt>
      <trkpt lat="42.939433" lon="1.235986">
        <ele>1290.7</ele>
        <time>2013-02-05T09:44:35Z</time>
      </trkpt>
      <trkpt lat="42.939457" lon="1.236119">
        <ele>1294.1</ele>
        <time>2013-02-05T09:44:58Z</time>
      </trkpt>
      <trkpt lat="42.939526" lon="1.236247">
        <ele>1297.9</ele>
        <time>2013-02-05T09:45:20Z</time>
      </trkpt>
      <trkpt lat="42.939544" lon="1.236508">
        <ele>1306.1</ele>
        <time>2013-02-05T09:46:09Z</time>
      </trkpt>
      <trkpt lat="42.939576" lon="1.236582">
        <ele>1306.6</ele>
        <time>2013-02-05T09:46:31Z</time>
      </trkpt>
      <trkpt lat="42.939536" lon="1.236714">
        <ele>1313.3</ele>
        <time>2013-02-05T09:46:55Z</time>
      </trkpt>
      <trkpt lat="42.939514" lon="1.236854">
        <ele>1317.1</ele>
        <time>2013-02-05T09:47:19Z</time>
      </trkpt>
      <trkpt lat="42.939529" lon="1.236968">
        <ele>1321.0</ele>
        <time>2013-02-05T09:47:39Z</time>
      </trkpt>
      <trkpt lat="42.939573" lon="1.237148">
        <ele>1323.9</ele>
        <time>2013-02-05T09:48:07Z</time>
      </trkpt>
      <trkpt lat="42.939514" lon="1.237351">
        <ele>1327.7</ele>
        <time>2013-02-05T09:48:34Z</time>
      </trkpt>
      <trkpt lat="42.939482" lon="1.237515">
        <ele>1331.6</ele>
        <time>2013-02-05T09:48:56Z</time>
      </trkpt>
      <trkpt lat="42.939518" lon="1.237721">
        <ele>1335.9</ele>
        <time>2013-02-05T09:49:35Z</time>
      </trkpt>
      <trkpt lat="42.939542" lon="1.237959">
        <ele>1339.7</ele>
        <time>2013-02-05T09:50:04Z</time>
      </trkpt>
      <trkpt lat="42.939550" lon="1.238163">
        <ele>1342.6</ele>
        <time>2013-02-05T09:50:32Z</time>
      </trkpt>
      <trkpt lat="42.939649" lon="1.238425">
        <ele>1346.9</ele>
        <time>2013-02-05T09:51:01Z</time>
      </trkpt>
      <trkpt lat="42.939653" lon="1.238569">
        <ele>1349.8</ele>
        <time>2013-02-05T09:51:24Z</time>
      </trkpt>
      <trkpt lat="42.939677" lon="1.238842">
        <ele>1353.7</ele>
        <time>2013-02-05T09:52:00Z</time>
      </trkpt>
      <trkpt lat="42.939700" lon="1.239108">
        <ele>1360.4</ele>
        <time>2013-02-05T09:52:38Z</time>
      </trkpt>
      <trkpt lat="42.939707" lon="1.239285">
        <ele>1361.8</ele>
        <time>2013-02-05T09:53:09Z</time>
      </trkpt>
      <trkpt lat="42.939675" lon="1.239252">
        <ele>1362.3</ele>
        <time>2013-02-05T09:56:31Z</time>
      </trkpt>
      <trkpt lat="42.939688" lon="1.239418">
        <ele>1362.3</ele>
        <time>2013-02-05T09:57:51Z</time>
      </trkpt>
      <trkpt lat="42.939663" lon="1.239609">
        <ele>1366.7</ele>
        <time>2013-02-05T09:58:21Z</time>
      </trkpt>
      <trkpt lat="42.939695" lon="1.239727">
        <ele>1368.1</ele>
        <time>2013-02-05T09:58:40Z</time>
      </trkpt>
      <trkpt lat="42.939672" lon="1.239878">
        <ele>1368.6</ele>
        <time>2013-02-05T09:58:56Z</time>
      </trkpt>
      <trkpt lat="42.939553" lon="1.239975">
        <ele>1368.1</ele>
        <time>2013-02-05T09:59:11Z</time>
        <name>Pic de Calamane</name>
      </trkpt>
      <trkpt lat="42.939483" lon="1.240154">
        <ele>1366.7</ele>
        <time>2013-02-05T09:59:35Z</time>
      </trkpt>
      <trkpt lat="42.939418" lon="1.240355">
        <ele>1368.1</ele>
        <time>2013-02-05T09:59:51Z</time>
      </trkpt>
      <trkpt lat="42.939353" lon="1.240515">
        <ele>1367.1</ele>
        <time>2013-02-05T10:00:06Z</time>
      </trkpt>
      <trkpt lat="42.939298" lon="1.240646">
        <ele>1366.7</ele>
        <time>2013-02-05T10:00:23Z</time>
      </trkpt>
      <trkpt lat="42.939203" lon="1.240819">
        <ele>1362.3</ele>
        <time>2013-02-05T10:00:49Z</time>
      </trkpt>
      <trkpt lat="42.939057" lon="1.241008">
        <ele>1363.3</ele>
        <time>2013-02-05T10:01:11Z</time>
      </trkpt>
      <trkpt lat="42.938977" lon="1.241156">
        <ele>1363.3</ele>
        <time>2013-02-05T10:01:31Z</time>
      </trkpt>
      <trkpt lat="42.938892" lon="1.241324">
        <ele>1363.3</ele>
        <time>2013-02-05T10:01:48Z</time>
      </trkpt>
      <trkpt lat="42.938780" lon="1.241404">
        <ele>1361.8</ele>
        <time>2013-02-05T10:02:02Z</time>
      </trkpt>
      <trkpt lat="42.938695" lon="1.241444">
        <ele>1359.0</ele>
        <time>2013-02-05T10:02:34Z</time>
      </trkpt>
      <trkpt lat="42.938569" lon="1.241537">
        <ele>1358.0</ele>
        <time>2013-02-05T10:02:57Z</time>
      </trkpt>
      <trkpt lat="42.938437" lon="1.241611">
        <ele>1355.1</ele>
        <time>2013-02-05T10:03:17Z</time>
      </trkpt>
      <trkpt lat="42.938296" lon="1.241694">
        <ele>1353.2</ele>
        <time>2013-02-05T10:03:47Z</time>
      </trkpt>
      <trkpt lat="42.938188" lon="1.241765">
        <ele>1350.8</ele>
        <time>2013-02-05T10:04:09Z</time>
      </trkpt>
      <trkpt lat="42.938053" lon="1.241797">
        <ele>1347.4</ele>
        <time>2013-02-05T10:04:29Z</time>
      </trkpt>
      <trkpt lat="42.937831" lon="1.242141">
        <ele>1346.0</ele>
        <time>2013-02-05T10:09:11Z</time>
      </trkpt>
      <trkpt lat="42.937740" lon="1.242249">
        <ele>1346.0</ele>
        <time>2013-02-05T10:09:25Z</time>
      </trkpt>
      <trkpt lat="42.937666" lon="1.242366">
        <ele>1344.5</ele>
        <time>2013-02-05T10:09:39Z</time>
      </trkpt>
      <trkpt lat="42.937592" lon="1.242503">
        <ele>1344.5</ele>
        <time>2013-02-05T10:09:56Z</time>
      </trkpt>
      <trkpt lat="42.937542" lon="1.242627">
        <ele>1344.5</ele>
        <time>2013-02-05T10:10:10Z</time>
      </trkpt>
      <trkpt lat="42.937473" lon="1.242763">
        <ele>1344.1</ele>
        <time>2013-02-05T10:10:23Z</time>
      </trkpt>
      <trkpt lat="42.937414" lon="1.242908">
        <ele>1344.5</ele>
        <time>2013-02-05T10:10:36Z</time>
      </trkpt>
      <trkpt lat="42.937364" lon="1.243055">
        <ele>1346.9</ele>
        <time>2013-02-05T10:10:50Z</time>
      </trkpt>
      <trkpt lat="42.937303" lon="1.243169">
        <ele>1346.9</ele>
        <time>2013-02-05T10:11:04Z</time>
      </trkpt>
      <trkpt lat="42.937221" lon="1.243292">
        <ele>1345.5</ele>
        <time>2013-02-05T10:11:17Z</time>
      </trkpt>
      <trkpt lat="42.937136" lon="1.243410">
        <ele>1345.0</ele>
        <time>2013-02-05T10:11:29Z</time>
      </trkpt>
      <trkpt lat="42.937063" lon="1.243518">
        <ele>1343.6</ele>
        <time>2013-02-05T10:11:41Z</time>
      </trkpt>
      <trkpt lat="42.936977" lon="1.243604">
        <ele>1340.7</ele>
        <time>2013-02-05T10:11:52Z</time>
      </trkpt>
      <trkpt lat="42.936876" lon="1.243724">
        <ele>1339.7</ele>
        <time>2013-02-05T10:12:06Z</time>
      </trkpt>
      <trkpt lat="42.936776" lon="1.243889">
        <ele>1337.3</ele>
        <time>2013-02-05T10:12:29Z</time>
      </trkpt>
      <trkpt lat="42.936666" lon="1.244065">
        <ele>1337.3</ele>
        <time>2013-02-05T10:12:50Z</time>
      </trkpt>
      <trkpt lat="42.936585" lon="1.244227">
        <ele>1336.8</ele>
        <time>2013-02-05T10:13:10Z</time>
      </trkpt>
      <trkpt lat="42.936508" lon="1.244346">
        <ele>1338.3</ele>
        <time>2013-02-05T10:13:30Z</time>
      </trkpt>
      <trkpt lat="42.936449" lon="1.244510">
        <ele>1339.2</ele>
        <time>2013-02-05T10:13:52Z</time>
      </trkpt>
      <trkpt lat="42.936397" lon="1.244670">
        <ele>1339.2</ele>
        <time>2013-02-05T10:14:10Z</time>
      </trkpt>
      <trkpt lat="42.936333" lon="1.244807">
        <ele>1340.2</ele>
        <time>2013-02-05T10:14:27Z</time>
      </trkpt>
      <trkpt lat="42.936283" lon="1.244943">
        <ele>1340.7</ele>
        <time>2013-02-05T10:14:41Z</time>
      </trkpt>
      <trkpt lat="42.936226" lon="1.245095">
        <ele>1340.7</ele>
        <time>2013-02-05T10:15:13Z</time>
      </trkpt>
      <trkpt lat="42.936202" lon="1.245122">
        <ele>1339.7</ele>
        <time>2013-02-05T10:17:06Z</time>
      </trkpt>
      <trkpt lat="42.936206" lon="1.245118">
        <ele>1346.5</ele>
        <time>2013-02-05T10:18:10Z</time>
      </trkpt>
      <trkpt lat="42.936144" lon="1.245326">
        <ele>1344.5</ele>
        <time>2013-02-05T10:20:28Z</time>
      </trkpt>
      <trkpt lat="42.936074" lon="1.245593">
        <ele>1341.7</ele>
        <time>2013-02-05T10:20:47Z</time>
      </trkpt>
      <trkpt lat="42.936027" lon="1.245748">
        <ele>1338.8</ele>
        <time>2013-02-05T10:21:00Z</time>
      </trkpt>
      <trkpt lat="42.935378" lon="1.247026">
        <ele>1316.7</ele>
        <time>2013-02-05T10:23:20Z</time>
      </trkpt>
      <trkpt lat="42.935247" lon="1.247232">
        <ele>1317.6</ele>
        <time>2013-02-05T10:23:41Z</time>
      </trkpt>
      <trkpt lat="42.935142" lon="1.247371">
        <ele>1317.6</ele>
        <time>2013-02-05T10:23:58Z</time>
      </trkpt>
      <trkpt lat="42.935032" lon="1.247603">
        <ele>1316.7</ele>
        <time>2013-02-05T10:24:17Z</time>
      </trkpt>
      <trkpt lat="42.934942" lon="1.247783">
        <ele>1317.1</ele>
        <time>2013-02-05T10:24:33Z</time>
      </trkpt>
      <trkpt lat="42.934875" lon="1.247995">
        <ele>1318.1</ele>
        <time>2013-02-05T10:24:53Z</time>
      </trkpt>
      <trkpt lat="42.934800" lon="1.248186">
        <ele>1319.1</ele>
        <time>2013-02-05T10:25:11Z</time>
      </trkpt>
      <trkpt lat="42.934725" lon="1.248337">
        <ele>1319.1</ele>
        <time>2013-02-05T10:25:26Z</time>
      </trkpt>
      <trkpt lat="42.934656" lon="1.248518">
        <ele>1320.0</ele>
        <time>2013-02-05T10:25:44Z</time>
      </trkpt>
      <trkpt lat="42.934556" lon="1.248651">
        <ele>1320.0</ele>
        <time>2013-02-05T10:25:59Z</time>
      </trkpt>
      <trkpt lat="42.934471" lon="1.248848">
        <ele>1320.0</ele>
        <time>2013-02-05T10:26:18Z</time>
      </trkpt>
      <trkpt lat="42.934335" lon="1.249040">
        <ele>1320.0</ele>
        <time>2013-02-05T10:26:37Z</time>
      </trkpt>
      <trkpt lat="42.934281" lon="1.249177">
        <ele>1320.0</ele>
        <time>2013-02-05T10:26:50Z</time>
      </trkpt>
      <trkpt lat="42.934230" lon="1.249210">
        <ele>1317.6</ele>
        <time>2013-02-05T10:28:42Z</time>
      </trkpt>
      <trkpt lat="42.934216" lon="1.249392">
        <ele>1317.6</ele>
        <time>2013-02-05T10:29:24Z</time>
      </trkpt>
      <trkpt lat="42.934174" lon="1.249635">
        <ele>1314.7</ele>
        <time>2013-02-05T10:29:48Z</time>
      </trkpt>
      <trkpt lat="42.934124" lon="1.249945">
        <ele>1314.3</ele>
        <time>2013-02-05T10:30:10Z</time>
      </trkpt>
      <trkpt lat="42.934072" lon="1.250128">
        <ele>1315.7</ele>
        <time>2013-02-05T10:30:26Z</time>
      </trkpt>
      <trkpt lat="42.934048" lon="1.250288">
        <ele>1318.6</ele>
        <time>2013-02-05T10:30:48Z</time>
      </trkpt>
      <trkpt lat="42.934018" lon="1.250474">
        <ele>1319.1</ele>
        <time>2013-02-05T10:31:09Z</time>
      </trkpt>
      <trkpt lat="42.933986" lon="1.250824">
        <ele>1321.0</ele>
        <time>2013-02-05T10:31:39Z</time>
      </trkpt>
      <trkpt lat="42.933966" lon="1.251058">
        <ele>1321.5</ele>
        <time>2013-02-05T10:32:13Z</time>
      </trkpt>
      <trkpt lat="42.933939" lon="1.251256">
        <ele>1320.0</ele>
        <time>2013-02-05T10:32:32Z</time>
      </trkpt>
      <trkpt lat="42.933902" lon="1.251475">
        <ele>1316.2</ele>
        <time>2013-02-05T10:32:50Z</time>
      </trkpt>
      <trkpt lat="42.933896" lon="1.251826">
        <ele>1313.3</ele>
        <time>2013-02-05T10:33:21Z</time>
      </trkpt>
      <trkpt lat="42.933888" lon="1.251957">
        <ele>1310.4</ele>
        <time>2013-02-05T10:33:32Z</time>
      </trkpt>
      <trkpt lat="42.933865" lon="1.252079">
        <ele>1308.5</ele>
        <time>2013-02-05T10:34:20Z</time>
      </trkpt>
      <trkpt lat="42.933853" lon="1.252230">
        <ele>1308.0</ele>
        <time>2013-02-05T10:34:31Z</time>
      </trkpt>
      <trkpt lat="42.933843" lon="1.252352">
        <ele>1308.0</ele>
        <time>2013-02-05T10:34:41Z</time>
      </trkpt>
      <trkpt lat="42.933848" lon="1.252490">
        <ele>1308.5</ele>
        <time>2013-02-05T10:34:54Z</time>
      </trkpt>
      <trkpt lat="42.933835" lon="1.252636">
        <ele>1307.5</ele>
        <time>2013-02-05T10:35:06Z</time>
      </trkpt>
      <trkpt lat="42.933831" lon="1.252783">
        <ele>1306.6</ele>
        <time>2013-02-05T10:35:17Z</time>
      </trkpt>
      <trkpt lat="42.933829" lon="1.252934">
        <ele>1305.6</ele>
        <time>2013-02-05T10:35:31Z</time>
      </trkpt>
      <trkpt lat="42.933849" lon="1.253131">
        <ele>1306.6</ele>
        <time>2013-02-05T10:36:56Z</time>
      </trkpt>
      <trkpt lat="42.933844" lon="1.253244">
        <ele>1306.6</ele>
        <time>2013-02-05T10:37:14Z</time>
      </trkpt>
      <trkpt lat="42.933837" lon="1.253447">
        <ele>1307.5</ele>
        <time>2013-02-05T10:37:48Z</time>
      </trkpt>
      <trkpt lat="42.933854" lon="1.253558">
        <ele>1309.4</ele>
        <time>2013-02-05T10:38:21Z</time>
      </trkpt>
      <trkpt lat="42.933862" lon="1.253707">
        <ele>1309.9</ele>
        <time>2013-02-05T10:38:36Z</time>
      </trkpt>
      <trkpt lat="42.933870" lon="1.253851">
        <ele>1310.4</ele>
        <time>2013-02-05T10:38:51Z</time>
      </trkpt>
      <trkpt lat="42.933898" lon="1.253978">
        <ele>1311.4</ele>
        <time>2013-02-05T10:39:07Z</time>
      </trkpt>
      <trkpt lat="42.933898" lon="1.254129">
        <ele>1311.4</ele>
        <time>2013-02-05T10:39:21Z</time>
      </trkpt>
      <trkpt lat="42.933908" lon="1.254252">
        <ele>1311.9</ele>
        <time>2013-02-05T10:39:50Z</time>
      </trkpt>
      <trkpt lat="42.933887" lon="1.254344">
        <ele>1312.3</ele>
        <time>2013-02-05T10:41:38Z</time>
      </trkpt>
      <trkpt lat="42.933848" lon="1.254499">
        <ele>1312.8</ele>
        <time>2013-02-05T10:41:52Z</time>
      </trkpt>
      <trkpt lat="42.933871" lon="1.254679">
        <ele>1313.8</ele>
        <time>2013-02-05T10:42:06Z</time>
      </trkpt>
      <trkpt lat="42.933895" lon="1.254829">
        <ele>1314.3</ele>
        <time>2013-02-05T10:42:20Z</time>
      </trkpt>
      <trkpt lat="42.933901" lon="1.254961">
        <ele>1316.2</ele>
        <time>2013-02-05T10:42:36Z</time>
      </trkpt>
      <trkpt lat="42.933864" lon="1.255071">
        <ele>1316.7</ele>
        <time>2013-02-05T10:44:34Z</time>
      </trkpt>
      <trkpt lat="42.933855" lon="1.255145">
        <ele>1315.7</ele>
        <time>2013-02-05T10:45:24Z</time>
      </trkpt>
      <trkpt lat="42.933847" lon="1.255295">
        <ele>1314.7</ele>
        <time>2013-02-05T10:45:37Z</time>
      </trkpt>
      <trkpt lat="42.933836" lon="1.255431">
        <ele>1313.8</ele>
        <time>2013-02-05T10:45:48Z</time>
      </trkpt>
      <trkpt lat="42.933827" lon="1.255570">
        <ele>1313.8</ele>
        <time>2013-02-05T10:46:01Z</time>
      </trkpt>
      <trkpt lat="42.933813" lon="1.255705">
        <ele>1314.3</ele>
        <time>2013-02-05T10:46:13Z</time>
      </trkpt>
      <trkpt lat="42.933792" lon="1.255832">
        <ele>1316.2</ele>
        <time>2013-02-05T10:46:26Z</time>
      </trkpt>
      <trkpt lat="42.933784" lon="1.255949">
        <ele>1317.1</ele>
        <time>2013-02-05T10:46:43Z</time>
      </trkpt>
      <trkpt lat="42.933829" lon="1.256100">
        <ele>1317.1</ele>
        <time>2013-02-05T10:47:00Z</time>
      </trkpt>
      <trkpt lat="42.933865" lon="1.256230">
        <ele>1318.1</ele>
        <time>2013-02-05T10:47:15Z</time>
      </trkpt>
      <trkpt lat="42.933863" lon="1.256380">
        <ele>1319.1</ele>
        <time>2013-02-05T10:47:31Z</time>
      </trkpt>
      <trkpt lat="42.933795" lon="1.256516">
        <ele>1320.0</ele>
        <time>2013-02-05T10:47:49Z</time>
      </trkpt>
      <trkpt lat="42.933798" lon="1.256650">
        <ele>1321.9</ele>
        <time>2013-02-05T10:48:07Z</time>
      </trkpt>
      <trkpt lat="42.933822" lon="1.256769">
        <ele>1322.9</ele>
        <time>2013-02-05T10:48:22Z</time>
      </trkpt>
      <trkpt lat="42.933945" lon="1.256860">
        <ele>1324.3</ele>
        <time>2013-02-05T10:48:38Z</time>
      </trkpt>
      <trkpt lat="42.933963" lon="1.256967">
        <ele>1326.8</ele>
        <time>2013-02-05T10:49:28Z</time>
      </trkpt>
      <trkpt lat="42.933996" lon="1.257096">
        <ele>1329.2</ele>
        <time>2013-02-05T10:49:46Z</time>
      </trkpt>
      <trkpt lat="42.934015" lon="1.257234">
        <ele>1332.0</ele>
        <time>2013-02-05T10:50:02Z</time>
      </trkpt>
      <trkpt lat="42.934013" lon="1.257359">
        <ele>1334.0</ele>
        <time>2013-02-05T10:50:17Z</time>
      </trkpt>
      <trkpt lat="42.934030" lon="1.257485">
        <ele>1335.9</ele>
        <time>2013-02-05T10:50:31Z</time>
      </trkpt>
      <trkpt lat="42.934076" lon="1.257611">
        <ele>1336.8</ele>
        <time>2013-02-05T10:50:44Z</time>
      </trkpt>
      <trkpt lat="42.934087" lon="1.257750">
        <ele>1338.8</ele>
        <time>2013-02-05T10:50:59Z</time>
      </trkpt>
      <trkpt lat="42.934078" lon="1.257883">
        <ele>1340.7</ele>
        <time>2013-02-05T10:51:13Z</time>
      </trkpt>
      <trkpt lat="42.934106" lon="1.258000">
        <ele>1341.2</ele>
        <time>2013-02-05T10:51:27Z</time>
      </trkpt>
      <trkpt lat="42.934133" lon="1.258138">
        <ele>1343.1</ele>
        <time>2013-02-05T10:51:41Z</time>
      </trkpt>
      <trkpt lat="42.934180" lon="1.258250">
        <ele>1344.5</ele>
        <time>2013-02-05T10:51:55Z</time>
      </trkpt>
      <trkpt lat="42.934224" lon="1.258366">
        <ele>1346.0</ele>
        <time>2013-02-05T10:52:12Z</time>
      </trkpt>
      <trkpt lat="42.934277" lon="1.258499">
        <ele>1346.9</ele>
        <time>2013-02-05T10:52:29Z</time>
      </trkpt>
      <trkpt lat="42.934301" lon="1.258615">
        <ele>1348.9</ele>
        <time>2013-02-05T10:52:47Z</time>
      </trkpt>
      <trkpt lat="42.934354" lon="1.258728">
        <ele>1350.8</ele>
        <time>2013-02-05T10:53:06Z</time>
      </trkpt>
      <trkpt lat="42.934399" lon="1.258841">
        <ele>1353.2</ele>
        <time>2013-02-05T10:53:25Z</time>
      </trkpt>
      <trkpt lat="42.934434" lon="1.258941">
        <ele>1357.0</ele>
        <time>2013-02-05T10:53:45Z</time>
      </trkpt>
      <trkpt lat="42.934481" lon="1.259050">
        <ele>1359.0</ele>
        <time>2013-02-05T10:54:06Z</time>
      </trkpt>
      <trkpt lat="42.934524" lon="1.259152">
        <ele>1361.4</ele>
        <time>2013-02-05T10:54:25Z</time>
      </trkpt>
      <trkpt lat="42.934547" lon="1.259265">
        <ele>1365.2</ele>
        <time>2013-02-05T10:55:50Z</time>
      </trkpt>
      <trkpt lat="42.934577" lon="1.259355">
        <ele>1367.6</ele>
        <time>2013-02-05T10:56:09Z</time>
      </trkpt>
      <trkpt lat="42.934595" lon="1.259482">
        <ele>1371.0</ele>
        <time>2013-02-05T10:56:27Z</time>
      </trkpt>
      <trkpt lat="42.934646" lon="1.259585">
        <ele>1374.3</ele>
        <time>2013-02-05T10:56:44Z</time>
      </trkpt>
      <trkpt lat="42.934668" lon="1.259698">
        <ele>1376.8</ele>
        <time>2013-02-05T10:57:02Z</time>
      </trkpt>
      <trkpt lat="42.934728" lon="1.259783">
        <ele>1380.1</ele>
        <time>2013-02-05T10:57:21Z</time>
      </trkpt>
      <trkpt lat="42.934768" lon="1.259887">
        <ele>1382.0</ele>
        <time>2013-02-05T10:57:40Z</time>
      </trkpt>
      <trkpt lat="42.934819" lon="1.260009">
        <ele>1384.9</ele>
        <time>2013-02-05T10:57:59Z</time>
      </trkpt>
      <trkpt lat="42.934841" lon="1.260121">
        <ele>1388.8</ele>
        <time>2013-02-05T10:58:19Z</time>
      </trkpt>
      <trkpt lat="42.934853" lon="1.260263">
        <ele>1391.7</ele>
        <time>2013-02-05T10:58:40Z</time>
      </trkpt>
      <trkpt lat="42.934858" lon="1.260414">
        <ele>1395.0</ele>
        <time>2013-02-05T10:59:01Z</time>
      </trkpt>
      <trkpt lat="42.934886" lon="1.260536">
        <ele>1397.4</ele>
        <time>2013-02-05T10:59:20Z</time>
      </trkpt>
      <trkpt lat="42.934886" lon="1.260667">
        <ele>1399.3</ele>
        <time>2013-02-05T10:59:46Z</time>
      </trkpt>
      <trkpt lat="42.934922" lon="1.260788">
        <ele>1403.7</ele>
        <time>2013-02-05T11:00:05Z</time>
      </trkpt>
      <trkpt lat="42.934924" lon="1.260917">
        <ele>1407.0</ele>
        <time>2013-02-05T11:00:24Z</time>
      </trkpt>
      <trkpt lat="42.934946" lon="1.261049">
        <ele>1410.4</ele>
        <time>2013-02-05T11:00:43Z</time>
      </trkpt>
      <trkpt lat="42.934970" lon="1.261185">
        <ele>1382.3</ele>
        <time>2013-02-05T11:01:00Z</time>
      </trkpt>
      <trkpt lat="42.934968" lon="1.261297">
        <ele>1384.3</ele>
        <time>2013-02-05T11:01:17Z</time>
      </trkpt>
      <trkpt lat="42.934992" lon="1.261417">
        <ele>1418.6</ele>
        <time>2013-02-05T11:01:35Z</time>
      </trkpt>
      <trkpt lat="42.935031" lon="1.261539">
        <ele>1421.0</ele>
        <time>2013-02-05T11:01:49Z</time>
      </trkpt>
      <trkpt lat="42.935050" lon="1.261665">
        <ele>1420.0</ele>
        <time>2013-02-05T11:02:02Z</time>
      </trkpt>
      <trkpt lat="42.935061" lon="1.261801">
        <ele>1388.7</ele>
        <time>2013-02-05T11:02:17Z</time>
      </trkpt>
      <trkpt lat="42.935071" lon="1.261927">
        <ele>1421.0</ele>
        <time>2013-02-05T11:02:31Z</time>
      </trkpt>
      <trkpt lat="42.935109" lon="1.262051">
        <ele>1421.0</ele>
        <time>2013-02-05T11:02:46Z</time>
      </trkpt>
      <trkpt lat="42.935161" lon="1.262144">
        <ele>1385.6</ele>
        <time>2013-02-05T11:03:00Z</time>
      </trkpt>
      <trkpt lat="42.935212" lon="1.262276">
        <ele>1383.5</ele>
        <time>2013-02-05T11:03:18Z</time>
      </trkpt>
      <trkpt lat="42.935259" lon="1.262378">
        <ele>1426.7</ele>
        <time>2013-02-05T11:03:35Z</time>
      </trkpt>
      <trkpt lat="42.935279" lon="1.262493">
        <ele>1380.4</ele>
        <time>2013-02-05T11:03:49Z</time>
      </trkpt>
      <trkpt lat="42.935282" lon="1.262541">
        <ele>1380.1</ele>
        <time>2013-02-05T11:05:09Z</time>
      </trkpt>
      <trkpt lat="42.935286" lon="1.262611">
        <ele>1379.6</ele>
        <time>2013-02-05T11:07:00Z</time>
      </trkpt>
      <trkpt lat="42.935283" lon="1.262644">
        <ele>1379.7</ele>
        <time>2013-02-05T11:08:15Z</time>
      </trkpt>
      <trkpt lat="42.935282" lon="1.262673">
        <ele>1427.7</ele>
        <time>2013-02-05T11:09:55Z</time>
        <name>Tuc de la Courate</name>
      </trkpt>
      <trkpt lat="42.935292" lon="1.262626">
        <ele>1428.2</ele>
        <time>2013-02-05T11:14:46Z</time>
      </trkpt>
      <trkpt lat="42.935287" lon="1.262513">
        <ele>1425.3</ele>
        <time>2013-02-05T11:16:16Z</time>
      </trkpt>
      <trkpt lat="42.935273" lon="1.262391">
        <ele>1424.3</ele>
        <time>2013-02-05T11:16:31Z</time>
      </trkpt>
      <trkpt lat="42.935234" lon="1.262307">
        <ele>1382.2</ele>
        <time>2013-02-05T11:16:42Z</time>
      </trkpt>
      <trkpt lat="42.935187" lon="1.262176">
        <ele>1384.2</ele>
        <time>2013-02-05T11:16:53Z</time>
      </trkpt>
      <trkpt lat="42.935135" lon="1.262068">
        <ele>1419.0</ele>
        <time>2013-02-05T11:17:05Z</time>
      </trkpt>
      <trkpt lat="42.935091" lon="1.261950">
        <ele>1417.6</ele>
        <time>2013-02-05T11:17:16Z</time>
      </trkpt>
      <trkpt lat="42.935074" lon="1.261829">
        <ele>1388.2</ele>
        <time>2013-02-05T11:17:28Z</time>
      </trkpt>
      <trkpt lat="42.935065" lon="1.261690">
        <ele>1416.6</ele>
        <time>2013-02-05T11:17:59Z</time>
      </trkpt>
      <trkpt lat="42.935041" lon="1.261571">
        <ele>1415.2</ele>
        <time>2013-02-05T11:18:09Z</time>
      </trkpt>
      <trkpt lat="42.935019" lon="1.261442">
        <ele>1414.2</ele>
        <time>2013-02-05T11:18:19Z</time>
      </trkpt>
      <trkpt lat="42.935001" lon="1.261317">
        <ele>1412.3</ele>
        <time>2013-02-05T11:18:29Z</time>
      </trkpt>
      <trkpt lat="42.935004" lon="1.261186">
        <ele>1410.9</ele>
        <time>2013-02-05T11:18:39Z</time>
      </trkpt>
      <trkpt lat="42.934955" lon="1.261064">
        <ele>1408.5</ele>
        <time>2013-02-05T11:18:51Z</time>
      </trkpt>
      <trkpt lat="42.934916" lon="1.260925">
        <ele>1406.6</ele>
        <time>2013-02-05T11:19:03Z</time>
      </trkpt>
      <trkpt lat="42.934892" lon="1.260803">
        <ele>1403.7</ele>
        <time>2013-02-05T11:19:14Z</time>
      </trkpt>
      <trkpt lat="42.934887" lon="1.260672">
        <ele>1399.8</ele>
        <time>2013-02-05T11:19:24Z</time>
      </trkpt>
      <trkpt lat="42.934870" lon="1.260540">
        <ele>1396.4</ele>
        <time>2013-02-05T11:19:34Z</time>
      </trkpt>
      <trkpt lat="42.934856" lon="1.260427">
        <ele>1395.0</ele>
        <time>2013-02-05T11:19:45Z</time>
      </trkpt>
      <trkpt lat="42.934864" lon="1.260298">
        <ele>1392.6</ele>
        <time>2013-02-05T11:19:57Z</time>
      </trkpt>
      <trkpt lat="42.934840" lon="1.260153">
        <ele>1388.8</ele>
        <time>2013-02-05T11:20:09Z</time>
      </trkpt>
      <trkpt lat="42.934806" lon="1.260047">
        <ele>1385.4</ele>
        <time>2013-02-05T11:20:53Z</time>
      </trkpt>
      <trkpt lat="42.934784" lon="1.259921">
        <ele>1382.5</ele>
        <time>2013-02-05T11:21:05Z</time>
      </trkpt>
      <trkpt lat="42.934722" lon="1.259833">
        <ele>1380.1</ele>
        <time>2013-02-05T11:21:16Z</time>
      </trkpt>
      <trkpt lat="42.934676" lon="1.259722">
        <ele>1375.8</ele>
        <time>2013-02-05T11:21:26Z</time>
      </trkpt>
      <trkpt lat="42.934633" lon="1.259612">
        <ele>1372.4</ele>
        <time>2013-02-05T11:21:36Z</time>
      </trkpt>
      <trkpt lat="42.934592" lon="1.259493">
        <ele>1369.1</ele>
        <time>2013-02-05T11:21:45Z</time>
      </trkpt>
      <trkpt lat="42.934540" lon="1.259382">
        <ele>1366.7</ele>
        <time>2013-02-05T11:22:02Z</time>
      </trkpt>
      <trkpt lat="42.934506" lon="1.259245">
        <ele>1362.3</ele>
        <time>2013-02-05T11:22:11Z</time>
      </trkpt>
      <trkpt lat="42.934504" lon="1.259109">
        <ele>1359.0</ele>
        <time>2013-02-05T11:22:20Z</time>
      </trkpt>
      <trkpt lat="42.934434" lon="1.259023">
        <ele>1356.6</ele>
        <time>2013-02-05T11:22:29Z</time>
      </trkpt>
      <trkpt lat="42.934367" lon="1.258913">
        <ele>1353.7</ele>
        <time>2013-02-05T11:22:44Z</time>
      </trkpt>
      <trkpt lat="42.934319" lon="1.258796">
        <ele>1350.8</ele>
        <time>2013-02-05T11:22:53Z</time>
      </trkpt>
      <trkpt lat="42.934258" lon="1.258698">
        <ele>1348.4</ele>
        <time>2013-02-05T11:23:03Z</time>
      </trkpt>
      <trkpt lat="42.934207" lon="1.258597">
        <ele>1346.9</ele>
        <time>2013-02-05T11:23:13Z</time>
      </trkpt>
      <trkpt lat="42.934159" lon="1.258495">
        <ele>1345.0</ele>
        <time>2013-02-05T11:23:22Z</time>
      </trkpt>
      <trkpt lat="42.934092" lon="1.258385">
        <ele>1343.6</ele>
        <time>2013-02-05T11:23:32Z</time>
      </trkpt>
      <trkpt lat="42.934047" lon="1.258299">
        <ele>1343.1</ele>
        <time>2013-02-05T11:24:31Z</time>
      </trkpt>
      <trkpt lat="42.933975" lon="1.258220">
        <ele>1340.2</ele>
        <time>2013-02-05T11:24:41Z</time>
      </trkpt>
      <trkpt lat="42.933880" lon="1.258137">
        <ele>1339.7</ele>
        <time>2013-02-05T11:24:53Z</time>
      </trkpt>
      <trkpt lat="42.933775" lon="1.258098">
        <ele>1338.8</ele>
        <time>2013-02-05T11:25:05Z</time>
      </trkpt>
      <trkpt lat="42.933659" lon="1.258071">
        <ele>1336.8</ele>
        <time>2013-02-05T11:25:17Z</time>
      </trkpt>
      <trkpt lat="42.933548" lon="1.258023">
        <ele>1335.9</ele>
        <time>2013-02-05T11:25:30Z</time>
      </trkpt>
      <trkpt lat="42.933434" lon="1.257941">
        <ele>1333.5</ele>
        <time>2013-02-05T11:25:50Z</time>
      </trkpt>
      <trkpt lat="42.933234" lon="1.257953">
        <ele>1329.2</ele>
        <time>2013-02-05T11:26:30Z</time>
      </trkpt>
      <trkpt lat="42.933081" lon="1.258015">
        <ele>1327.2</ele>
        <time>2013-02-05T11:26:47Z</time>
      </trkpt>
      <trkpt lat="42.932994" lon="1.257867">
        <ele>1322.9</ele>
        <time>2013-02-05T11:28:08Z</time>
      </trkpt>
      <trkpt lat="42.932872" lon="1.257697">
        <ele>1316.7</ele>
        <time>2013-02-05T11:28:27Z</time>
      </trkpt>
      <trkpt lat="42.932697" lon="1.257698">
        <ele>1309.0</ele>
        <time>2013-02-05T11:28:43Z</time>
      </trkpt>
      <trkpt lat="42.932547" lon="1.257595">
        <ele>1304.7</ele>
        <time>2013-02-05T11:29:14Z</time>
      </trkpt>
      <trkpt lat="42.932308" lon="1.257550">
        <ele>1300.8</ele>
        <time>2013-02-05T11:29:42Z</time>
      </trkpt>
      <trkpt lat="42.932157" lon="1.257581">
        <ele>1298.4</ele>
        <time>2013-02-05T11:30:02Z</time>
      </trkpt>
      <trkpt lat="42.932014" lon="1.257522">
        <ele>1293.1</ele>
        <time>2013-02-05T11:30:21Z</time>
      </trkpt>
      <trkpt lat="42.931828" lon="1.257352">
        <ele>1287.3</ele>
        <time>2013-02-05T11:31:09Z</time>
      </trkpt>
      <trkpt lat="42.931758" lon="1.257325">
        <ele>1287.8</ele>
        <time>2013-02-05T11:34:45Z</time>
      </trkpt>
      <trkpt lat="42.931669" lon="1.257311">
        <ele>1290.2</ele>
        <time>2013-02-05T11:58:57Z</time>
      </trkpt>
      <trkpt lat="42.931566" lon="1.257185">
        <ele>1284.9</ele>
        <time>2013-02-05T11:59:12Z</time>
      </trkpt>
      <trkpt lat="42.931392" lon="1.257122">
        <ele>1279.7</ele>
        <time>2013-02-05T11:59:32Z</time>
      </trkpt>
      <trkpt lat="42.931242" lon="1.257047">
        <ele>1273.4</ele>
        <time>2013-02-05T11:59:54Z</time>
      </trkpt>
      <trkpt lat="42.931032" lon="1.257030">
        <ele>1269.1</ele>
        <time>2013-02-05T12:00:17Z</time>
      </trkpt>
      <trkpt lat="42.930894" lon="1.256882">
        <ele>1258.5</ele>
        <time>2013-02-05T12:00:45Z</time>
      </trkpt>
      <trkpt lat="42.930726" lon="1.256820">
        <ele>1251.3</ele>
        <time>2013-02-05T12:01:37Z</time>
      </trkpt>
      <trkpt lat="42.930552" lon="1.256737">
        <ele>1244.1</ele>
        <time>2013-02-05T12:01:56Z</time>
      </trkpt>
      <trkpt lat="42.930373" lon="1.256678">
        <ele>1237.8</ele>
        <time>2013-02-05T12:02:13Z</time>
      </trkpt>
      <trkpt lat="42.930325" lon="1.256635">
        <ele>1234.0</ele>
        <time>2013-02-05T12:02:53Z</time>
      </trkpt>
      <trkpt lat="42.930181" lon="1.256566">
        <ele>1223.9</ele>
        <time>2013-02-05T12:03:16Z</time>
      </trkpt>
      <trkpt lat="42.930131" lon="1.256643">
        <ele>1222.9</ele>
        <time>2013-02-05T12:03:48Z</time>
      </trkpt>
      <trkpt lat="42.930019" lon="1.256652">
        <ele>1218.6</ele>
        <time>2013-02-05T12:04:04Z</time>
      </trkpt>
      <trkpt lat="42.929917" lon="1.256570">
        <ele>1215.2</ele>
        <time>2013-02-05T12:06:24Z</time>
      </trkpt>
      <trkpt lat="42.929810" lon="1.256567">
        <ele>1210.0</ele>
        <time>2013-02-05T12:06:39Z</time>
      </trkpt>
      <trkpt lat="42.929728" lon="1.256516">
        <ele>1205.2</ele>
        <time>2013-02-05T12:06:54Z</time>
      </trkpt>
      <trkpt lat="42.929647" lon="1.256437">
        <ele>1198.4</ele>
        <time>2013-02-05T12:07:28Z</time>
      </trkpt>
      <trkpt lat="42.929565" lon="1.256353">
        <ele>1193.6</ele>
        <time>2013-02-05T12:08:28Z</time>
      </trkpt>
      <trkpt lat="42.929474" lon="1.256377">
        <ele>1188.3</ele>
        <time>2013-02-05T12:08:56Z</time>
      </trkpt>
      <trkpt lat="42.929420" lon="1.256421">
        <ele>1187.4</ele>
        <time>2013-02-05T12:11:25Z</time>
      </trkpt>
      <trkpt lat="42.929319" lon="1.256417">
        <ele>1182.6</ele>
        <time>2013-02-05T12:11:47Z</time>
      </trkpt>
      <trkpt lat="42.929228" lon="1.256445">
        <ele>1176.3</ele>
        <time>2013-02-05T12:12:06Z</time>
      </trkpt>
      <trkpt lat="42.929150" lon="1.256380">
        <ele>1171.5</ele>
        <time>2013-02-05T12:12:29Z</time>
      </trkpt>
      <trkpt lat="42.929038" lon="1.256341">
        <ele>1164.8</ele>
        <time>2013-02-05T12:12:51Z</time>
      </trkpt>
      <trkpt lat="42.928923" lon="1.256240">
        <ele>1160.0</ele>
        <time>2013-02-05T12:13:33Z</time>
      </trkpt>
      <trkpt lat="42.928886" lon="1.256133">
        <ele>1156.6</ele>
        <time>2013-02-05T12:13:52Z</time>
      </trkpt>
      <trkpt lat="42.928776" lon="1.256154">
        <ele>1150.8</ele>
        <time>2013-02-05T12:14:10Z</time>
      </trkpt>
      <trkpt lat="42.928634" lon="1.256157">
        <ele>1147.0</ele>
        <time>2013-02-05T12:14:56Z</time>
      </trkpt>
      <trkpt lat="42.928568" lon="1.256047">
        <ele>1142.7</ele>
        <time>2013-02-05T12:15:27Z</time>
      </trkpt>
      <trkpt lat="42.928446" lon="1.256098">
        <ele>1137.4</ele>
        <time>2013-02-05T12:15:48Z</time>
      </trkpt>
      <trkpt lat="42.928375" lon="1.256110">
        <ele>1133.5</ele>
        <time>2013-02-05T12:16:10Z</time>
      </trkpt>
      <trkpt lat="42.928281" lon="1.256142">
        <ele>1130.2</ele>
        <time>2013-02-05T12:17:30Z</time>
      </trkpt>
      <trkpt lat="42.928168" lon="1.256168">
        <ele>1125.8</ele>
        <time>2013-02-05T12:17:43Z</time>
      </trkpt>
      <trkpt lat="42.928073" lon="1.256214">
        <ele>1119.6</ele>
        <time>2013-02-05T12:18:02Z</time>
      </trkpt>
      <trkpt lat="42.927957" lon="1.256258">
        <ele>1115.8</ele>
        <time>2013-02-05T12:18:20Z</time>
      </trkpt>
      <trkpt lat="42.927900" lon="1.256234">
        <ele>1110.9</ele>
        <time>2013-02-05T12:18:40Z</time>
      </trkpt>
      <trkpt lat="42.927904" lon="1.256161">
        <ele>1112.4</ele>
        <time>2013-02-05T12:20:55Z</time>
      </trkpt>
      <trkpt lat="42.927895" lon="1.256011">
        <ele>1111.9</ele>
        <time>2013-02-05T12:21:08Z</time>
      </trkpt>
      <trkpt lat="42.927892" lon="1.255853">
        <ele>1111.9</ele>
        <time>2013-02-05T12:21:21Z</time>
      </trkpt>
      <trkpt lat="42.927894" lon="1.255711">
        <ele>1110.9</ele>
        <time>2013-02-05T12:21:36Z</time>
      </trkpt>
      <trkpt lat="42.927910" lon="1.255571">
        <ele>1110.9</ele>
        <time>2013-02-05T12:21:50Z</time>
      </trkpt>
      <trkpt lat="42.927911" lon="1.255433">
        <ele>1110.5</ele>
        <time>2013-02-05T12:22:07Z</time>
      </trkpt>
      <trkpt lat="42.927902" lon="1.255261">
        <ele>1110.0</ele>
        <time>2013-02-05T12:22:26Z</time>
      </trkpt>
      <trkpt lat="42.927932" lon="1.255038">
        <ele>1110.0</ele>
        <time>2013-02-05T12:22:44Z</time>
      </trkpt>
      <trkpt lat="42.927973" lon="1.254849">
        <ele>1109.5</ele>
        <time>2013-02-05T12:23:03Z</time>
      </trkpt>
      <trkpt lat="42.928021" lon="1.254608">
        <ele>1109.0</ele>
        <time>2013-02-05T12:23:22Z</time>
      </trkpt>
      <trkpt lat="42.928044" lon="1.254430">
        <ele>1107.6</ele>
        <time>2013-02-05T12:23:41Z</time>
      </trkpt>
      <trkpt lat="42.928058" lon="1.254256">
        <ele>1107.6</ele>
        <time>2013-02-05T12:23:56Z</time>
      </trkpt>
      <trkpt lat="42.928089" lon="1.254117">
        <ele>1107.6</ele>
        <time>2013-02-05T12:24:12Z</time>
        <name>Aire de pique-nique</name>
      </trkpt>
      <trkpt lat="42.928111" lon="1.253922">
        <ele>1107.1</ele>
        <time>2013-02-05T12:24:29Z</time>
      </trkpt>
      <trkpt lat="42.928156" lon="1.253817">
        <ele>1106.6</ele>
        <time>2013-02-05T12:24:46Z</time>
      </trkpt>
      <trkpt lat="42.928218" lon="1.253701">
        <ele>1106.1</ele>
        <time>2013-02-05T12:25:01Z</time>
      </trkpt>
      <trkpt lat="42.928278" lon="1.253600">
        <ele>1105.7</ele>
        <time>2013-02-05T12:25:15Z</time>
      </trkpt>
      <trkpt lat="42.928356" lon="1.253499">
        <ele>1104.7</ele>
        <time>2013-02-05T12:25:29Z</time>
      </trkpt>
      <trkpt lat="42.928428" lon="1.253426">
        <ele>1104.7</ele>
        <time>2013-02-05T12:25:41Z</time>
      </trkpt>
      <trkpt lat="42.928522" lon="1.253358">
        <ele>1104.7</ele>
        <time>2013-02-05T12:25:53Z</time>
      </trkpt>
      <trkpt lat="42.928632" lon="1.253292">
        <ele>1103.7</ele>
        <time>2013-02-05T12:26:08Z</time>
      </trkpt>
      <trkpt lat="42.928788" lon="1.253267">
        <ele>1104.2</ele>
        <time>2013-02-05T12:26:25Z</time>
      </trkpt>
      <trkpt lat="42.928941" lon="1.253299">
        <ele>1103.7</ele>
        <time>2013-02-05T12:26:39Z</time>
      </trkpt>
      <trkpt lat="42.929047" lon="1.253279">
        <ele>1105.7</ele>
        <time>2013-02-05T12:26:52Z</time>
      </trkpt>
      <trkpt lat="42.929168" lon="1.253250">
        <ele>1105.7</ele>
        <time>2013-02-05T12:27:07Z</time>
      </trkpt>
      <trkpt lat="42.929295" lon="1.253246">
        <ele>1106.1</ele>
        <time>2013-02-05T12:27:45Z</time>
      </trkpt>
      <trkpt lat="42.929396" lon="1.253233">
        <ele>1106.1</ele>
        <time>2013-02-05T12:28:01Z</time>
      </trkpt>
      <trkpt lat="42.929525" lon="1.253215">
        <ele>1106.1</ele>
        <time>2013-02-05T12:28:15Z</time>
      </trkpt>
      <trkpt lat="42.929665" lon="1.253187">
        <ele>1106.6</ele>
        <time>2013-02-05T12:28:33Z</time>
      </trkpt>
      <trkpt lat="42.929751" lon="1.253166">
        <ele>1106.1</ele>
        <time>2013-02-05T12:28:47Z</time>
      </trkpt>
      <trkpt lat="42.929846" lon="1.253127">
        <ele>1106.6</ele>
        <time>2013-02-05T12:29:02Z</time>
      </trkpt>
      <trkpt lat="42.929942" lon="1.253087">
        <ele>1106.1</ele>
        <time>2013-02-05T12:29:17Z</time>
      </trkpt>
      <trkpt lat="42.930019" lon="1.252985">
        <ele>1106.1</ele>
        <time>2013-02-05T12:29:32Z</time>
      </trkpt>
      <trkpt lat="42.930013" lon="1.252845">
        <ele>1106.1</ele>
        <time>2013-02-05T12:30:19Z</time>
      </trkpt>
      <trkpt lat="42.929946" lon="1.252778">
        <ele>1106.6</ele>
        <time>2013-02-05T12:30:33Z</time>
      </trkpt>
      <trkpt lat="42.929884" lon="1.252678">
        <ele>1107.1</ele>
        <time>2013-02-05T12:30:45Z</time>
      </trkpt>
      <trkpt lat="42.929806" lon="1.252583">
        <ele>1107.1</ele>
        <time>2013-02-05T12:30:58Z</time>
      </trkpt>
      <trkpt lat="42.929750" lon="1.252462">
        <ele>1107.6</ele>
        <time>2013-02-05T12:31:10Z</time>
      </trkpt>
      <trkpt lat="42.929707" lon="1.252325">
        <ele>1107.6</ele>
        <time>2013-02-05T12:31:22Z</time>
      </trkpt>
      <trkpt lat="42.929736" lon="1.252153">
        <ele>1107.1</ele>
        <time>2013-02-05T12:31:35Z</time>
      </trkpt>
      <trkpt lat="42.929766" lon="1.251971">
        <ele>1107.1</ele>
        <time>2013-02-05T12:31:50Z</time>
      </trkpt>
      <trkpt lat="42.929815" lon="1.251822">
        <ele>1107.1</ele>
        <time>2013-02-05T12:32:03Z</time>
      </trkpt>
      <trkpt lat="42.929862" lon="1.251700">
        <ele>1107.1</ele>
        <time>2013-02-05T12:32:14Z</time>
      </trkpt>
      <trkpt lat="42.929918" lon="1.251572">
        <ele>1107.1</ele>
        <time>2013-02-05T12:32:28Z</time>
      </trkpt>
      <trkpt lat="42.929979" lon="1.251437">
        <ele>1107.1</ele>
        <time>2013-02-05T12:32:40Z</time>
      </trkpt>
      <trkpt lat="42.930050" lon="1.251261">
        <ele>1106.6</ele>
        <time>2013-02-05T12:32:52Z</time>
      </trkpt>
      <trkpt lat="42.930106" lon="1.251107">
        <ele>1107.6</ele>
        <time>2013-02-05T12:33:05Z</time>
      </trkpt>
      <trkpt lat="42.930156" lon="1.250988">
        <ele>1107.1</ele>
        <time>2013-02-05T12:33:16Z</time>
      </trkpt>
      <trkpt lat="42.930204" lon="1.250880">
        <ele>1107.1</ele>
        <time>2013-02-05T12:33:27Z</time>
      </trkpt>
      <trkpt lat="42.930270" lon="1.250764">
        <ele>1107.1</ele>
        <time>2013-02-05T12:33:38Z</time>
      </trkpt>
      <trkpt lat="42.930330" lon="1.250622">
        <ele>1107.6</ele>
        <time>2013-02-05T12:33:50Z</time>
      </trkpt>
      <trkpt lat="42.930389" lon="1.250486">
        <ele>1107.6</ele>
        <time>2013-02-05T12:34:02Z</time>
      </trkpt>
      <trkpt lat="42.930439" lon="1.250364">
        <ele>1108.1</ele>
        <time>2013-02-05T12:34:16Z</time>
      </trkpt>
      <trkpt lat="42.930430" lon="1.250200">
        <ele>1106.1</ele>
        <time>2013-02-05T12:34:29Z</time>
      </trkpt>
      <trkpt lat="42.930359" lon="1.250114">
        <ele>1106.1</ele>
        <time>2013-02-05T12:34:48Z</time>
      </trkpt>
      <trkpt lat="42.930271" lon="1.250039">
        <ele>1106.1</ele>
        <time>2013-02-05T12:35:26Z</time>
      </trkpt>
      <trkpt lat="42.930190" lon="1.249945">
        <ele>1105.7</ele>
        <time>2013-02-05T12:35:38Z</time>
      </trkpt>
      <trkpt lat="42.930104" lon="1.249845">
        <ele>1105.2</ele>
        <time>2013-02-05T12:35:52Z</time>
      </trkpt>
      <trkpt lat="42.930051" lon="1.249700">
        <ele>1105.7</ele>
        <time>2013-02-05T12:36:04Z</time>
      </trkpt>
      <trkpt lat="42.930039" lon="1.249532">
        <ele>1106.1</ele>
        <time>2013-02-05T12:36:16Z</time>
      </trkpt>
      <trkpt lat="42.930037" lon="1.249361">
        <ele>1105.2</ele>
        <time>2013-02-05T12:36:29Z</time>
      </trkpt>
      <trkpt lat="42.930028" lon="1.249189">
        <ele>1106.1</ele>
        <time>2013-02-05T12:36:44Z</time>
      </trkpt>
      <trkpt lat="42.929999" lon="1.249010">
        <ele>1106.1</ele>
        <time>2013-02-05T12:36:59Z</time>
      </trkpt>
      <trkpt lat="42.929980" lon="1.248841">
        <ele>1106.1</ele>
        <time>2013-02-05T12:37:14Z</time>
      </trkpt>
      <trkpt lat="42.929967" lon="1.248664">
        <ele>1106.1</ele>
        <time>2013-02-05T12:37:27Z</time>
      </trkpt>
      <trkpt lat="42.929921" lon="1.248521">
        <ele>1106.1</ele>
        <time>2013-02-05T12:37:40Z</time>
      </trkpt>
      <trkpt lat="42.929884" lon="1.248356">
        <ele>1106.1</ele>
        <time>2013-02-05T12:37:53Z</time>
      </trkpt>
      <trkpt lat="42.929853" lon="1.248187">
        <ele>1107.1</ele>
        <time>2013-02-05T12:38:07Z</time>
      </trkpt>
      <trkpt lat="42.929841" lon="1.248007">
        <ele>1107.1</ele>
        <time>2013-02-05T12:38:20Z</time>
      </trkpt>
      <trkpt lat="42.929833" lon="1.247845">
        <ele>1106.1</ele>
        <time>2013-02-05T12:38:34Z</time>
      </trkpt>
      <trkpt lat="42.929835" lon="1.247658">
        <ele>1106.6</ele>
        <time>2013-02-05T12:38:48Z</time>
      </trkpt>
      <trkpt lat="42.929837" lon="1.247503">
        <ele>1105.2</ele>
        <time>2013-02-05T12:39:01Z</time>
      </trkpt>
      <trkpt lat="42.929832" lon="1.247346">
        <ele>1104.7</ele>
        <time>2013-02-05T12:39:14Z</time>
      </trkpt>
      <trkpt lat="42.929792" lon="1.247181">
        <ele>1104.2</ele>
        <time>2013-02-05T12:39:27Z</time>
      </trkpt>
      <trkpt lat="42.929755" lon="1.247036">
        <ele>1104.7</ele>
        <time>2013-02-05T12:39:39Z</time>
      </trkpt>
      <trkpt lat="42.929697" lon="1.246901">
        <ele>1103.7</ele>
        <time>2013-02-05T12:39:52Z</time>
      </trkpt>
      <trkpt lat="42.929668" lon="1.246749">
        <ele>1103.7</ele>
        <time>2013-02-05T12:40:07Z</time>
      </trkpt>
      <trkpt lat="42.929654" lon="1.246602">
        <ele>1102.8</ele>
        <time>2013-02-05T12:40:20Z</time>
      </trkpt>
      <trkpt lat="42.929638" lon="1.246446">
        <ele>1102.3</ele>
        <time>2013-02-05T12:40:33Z</time>
      </trkpt>
      <trkpt lat="42.929621" lon="1.246264">
        <ele>1100.8</ele>
        <time>2013-02-05T12:40:46Z</time>
      </trkpt>
      <trkpt lat="42.929617" lon="1.246071">
        <ele>1099.9</ele>
        <time>2013-02-05T12:41:00Z</time>
      </trkpt>
      <trkpt lat="42.929621" lon="1.245917">
        <ele>1099.9</ele>
        <time>2013-02-05T12:41:14Z</time>
      </trkpt>
      <trkpt lat="42.929624" lon="1.245756">
        <ele>1098.4</ele>
        <time>2013-02-05T12:41:26Z</time>
      </trkpt>
      <trkpt lat="42.929644" lon="1.245601">
        <ele>1098.0</ele>
        <time>2013-02-05T12:41:38Z</time>
      </trkpt>
      <trkpt lat="42.929673" lon="1.245465">
        <ele>1098.0</ele>
        <time>2013-02-05T12:41:49Z</time>
      </trkpt>
      <trkpt lat="42.929722" lon="1.245312">
        <ele>1097.0</ele>
        <time>2013-02-05T12:42:01Z</time>
      </trkpt>
      <trkpt lat="42.929764" lon="1.245166">
        <ele>1095.6</ele>
        <time>2013-02-05T12:42:13Z</time>
      </trkpt>
      <trkpt lat="42.929802" lon="1.245032">
        <ele>1095.6</ele>
        <time>2013-02-05T12:42:24Z</time>
      </trkpt>
      <trkpt lat="42.929843" lon="1.244916">
        <ele>1094.6</ele>
        <time>2013-02-05T12:42:34Z</time>
      </trkpt>
      <trkpt lat="42.929888" lon="1.244791">
        <ele>1094.1</ele>
        <time>2013-02-05T12:42:44Z</time>
      </trkpt>
      <trkpt lat="42.929962" lon="1.244688">
        <ele>1094.6</ele>
        <time>2013-02-05T12:42:56Z</time>
      </trkpt>
      <trkpt lat="42.930036" lon="1.244610">
        <ele>1093.2</ele>
        <time>2013-02-05T12:43:05Z</time>
      </trkpt>
      <trkpt lat="42.930161" lon="1.244563">
        <ele>1093.6</ele>
        <time>2013-02-05T12:43:18Z</time>
      </trkpt>
      <trkpt lat="42.930265" lon="1.244550">
        <ele>1089.8</ele>
        <time>2013-02-05T12:46:56Z</time>
      </trkpt>
      <trkpt lat="42.930408" lon="1.244507">
        <ele>1090.3</ele>
        <time>2013-02-05T12:47:08Z</time>
      </trkpt>
      <trkpt lat="42.930542" lon="1.244436">
        <ele>1089.8</ele>
        <time>2013-02-05T12:47:21Z</time>
      </trkpt>
      <trkpt lat="42.930649" lon="1.244400">
        <ele>1089.3</ele>
        <time>2013-02-05T12:47:34Z</time>
      </trkpt>
      <trkpt lat="42.930772" lon="1.244438">
        <ele>1089.3</ele>
        <time>2013-02-05T12:47:48Z</time>
      </trkpt>
      <trkpt lat="42.930877" lon="1.244465">
        <ele>1088.8</ele>
        <time>2013-02-05T12:48:02Z</time>
      </trkpt>
      <trkpt lat="42.930917" lon="1.244345">
        <ele>1089.3</ele>
        <time>2013-02-05T12:48:14Z</time>
      </trkpt>
      <trkpt lat="42.930949" lon="1.244196">
        <ele>1088.3</ele>
        <time>2013-02-05T12:48:25Z</time>
      </trkpt>
      <trkpt lat="42.930971" lon="1.244052">
        <ele>1088.8</ele>
        <time>2013-02-05T12:48:37Z</time>
      </trkpt>
      <trkpt lat="42.930990" lon="1.243884">
        <ele>1089.8</ele>
        <time>2013-02-05T12:48:49Z</time>
      </trkpt>
      <trkpt lat="42.931040" lon="1.243728">
        <ele>1089.3</ele>
        <time>2013-02-05T12:49:02Z</time>
      </trkpt>
      <trkpt lat="42.931120" lon="1.243542">
        <ele>1089.3</ele>
        <time>2013-02-05T12:49:17Z</time>
      </trkpt>
      <trkpt lat="42.931170" lon="1.243387">
        <ele>1089.8</ele>
        <time>2013-02-05T12:49:33Z</time>
      </trkpt>
      <trkpt lat="42.931241" lon="1.243248">
        <ele>1089.3</ele>
        <time>2013-02-05T12:49:49Z</time>
      </trkpt>
      <trkpt lat="42.931303" lon="1.243108">
        <ele>1089.8</ele>
        <time>2013-02-05T12:50:03Z</time>
      </trkpt>
      <trkpt lat="42.931374" lon="1.242957">
        <ele>1088.8</ele>
        <time>2013-02-05T12:50:16Z</time>
      </trkpt>
      <trkpt lat="42.931459" lon="1.242809">
        <ele>1088.8</ele>
        <time>2013-02-05T12:50:30Z</time>
      </trkpt>
      <trkpt lat="42.931529" lon="1.242674">
        <ele>1090.8</ele>
        <time>2013-02-05T12:50:42Z</time>
      </trkpt>
      <trkpt lat="42.931600" lon="1.242544">
        <ele>1089.3</ele>
        <time>2013-02-05T12:50:54Z</time>
      </trkpt>
      <trkpt lat="42.931697" lon="1.242424">
        <ele>1088.3</ele>
        <time>2013-02-05T12:51:07Z</time>
      </trkpt>
      <trkpt lat="42.931807" lon="1.242310">
        <ele>1089.3</ele>
        <time>2013-02-05T12:51:21Z</time>
      </trkpt>
      <trkpt lat="42.931936" lon="1.242187">
        <ele>1088.8</ele>
        <time>2013-02-05T12:51:35Z</time>
      </trkpt>
      <trkpt lat="42.932000" lon="1.242061">
        <ele>1088.8</ele>
        <time>2013-02-05T12:51:46Z</time>
      </trkpt>
      <trkpt lat="42.932043" lon="1.241927">
        <ele>1088.8</ele>
        <time>2013-02-05T12:51:57Z</time>
      </trkpt>
      <trkpt lat="42.932088" lon="1.241762">
        <ele>1088.8</ele>
        <time>2013-02-05T12:52:10Z</time>
      </trkpt>
      <trkpt lat="42.932117" lon="1.241612">
        <ele>1088.8</ele>
        <time>2013-02-05T12:52:22Z</time>
      </trkpt>
      <trkpt lat="42.932156" lon="1.241462">
        <ele>1089.3</ele>
        <time>2013-02-05T12:52:35Z</time>
      </trkpt>
      <trkpt lat="42.932169" lon="1.241295">
        <ele>1089.3</ele>
        <time>2013-02-05T12:52:46Z</time>
      </trkpt>
      <trkpt lat="42.932180" lon="1.241125">
        <ele>1088.8</ele>
        <time>2013-02-05T12:52:59Z</time>
      </trkpt>
      <trkpt lat="42.932200" lon="1.240972">
        <ele>1089.3</ele>
        <time>2013-02-05T12:53:11Z</time>
      </trkpt>
      <trkpt lat="42.932194" lon="1.240785">
        <ele>1089.3</ele>
        <time>2013-02-05T12:53:26Z</time>
      </trkpt>
      <trkpt lat="42.932181" lon="1.240666">
        <ele>1089.3</ele>
        <time>2013-02-05T12:53:37Z</time>
      </trkpt>
      <trkpt lat="42.932171" lon="1.240542">
        <ele>1088.8</ele>
        <time>2013-02-05T12:53:48Z</time>
      </trkpt>
      <trkpt lat="42.932155" lon="1.240392">
        <ele>1089.8</ele>
        <time>2013-02-05T12:53:59Z</time>
      </trkpt>
      <trkpt lat="42.932143" lon="1.240261">
        <ele>1089.8</ele>
        <time>2013-02-05T12:54:09Z</time>
      </trkpt>
      <trkpt lat="42.932126" lon="1.240126">
        <ele>1089.8</ele>
        <time>2013-02-05T12:54:19Z</time>
      </trkpt>
      <trkpt lat="42.932104" lon="1.240000">
        <ele>1088.8</ele>
        <time>2013-02-05T12:54:30Z</time>
      </trkpt>
      <trkpt lat="42.932065" lon="1.239857">
        <ele>1088.3</ele>
        <time>2013-02-05T12:54:41Z</time>
      </trkpt>
      <trkpt lat="42.932025" lon="1.239718">
        <ele>1088.3</ele>
        <time>2013-02-05T12:54:51Z</time>
      </trkpt>
      <trkpt lat="42.931989" lon="1.239598">
        <ele>1088.3</ele>
        <time>2013-02-05T12:55:01Z</time>
      </trkpt>
      <trkpt lat="42.931974" lon="1.239446">
        <ele>1087.4</ele>
        <time>2013-02-05T12:55:30Z</time>
      </trkpt>
      <trkpt lat="42.931975" lon="1.239430">
        <ele>1086.9</ele>
        <time>2013-02-05T12:59:54Z</time>
      </trkpt>
      <trkpt lat="42.931984" lon="1.239304">
        <ele>1086.9</ele>
        <time>2013-02-05T13:01:02Z</time>
      </trkpt>
      <trkpt lat="42.932016" lon="1.239160">
        <ele>1085.9</ele>
        <time>2013-02-05T13:01:12Z</time>
      </trkpt>
      <trkpt lat="42.932065" lon="1.239027">
        <ele>1084.5</ele>
        <time>2013-02-05T13:01:23Z</time>
      </trkpt>
      <trkpt lat="42.932108" lon="1.238903">
        <ele>1083.5</ele>
        <time>2013-02-05T13:01:33Z</time>
      </trkpt>
      <trkpt lat="42.932165" lon="1.238787">
        <ele>1083.1</ele>
        <time>2013-02-05T13:01:43Z</time>
      </trkpt>
      <trkpt lat="42.932219" lon="1.238676">
        <ele>1083.5</ele>
        <time>2013-02-05T13:01:52Z</time>
      </trkpt>
      <trkpt lat="42.932291" lon="1.238556">
        <ele>1082.1</ele>
        <time>2013-02-05T13:02:02Z</time>
      </trkpt>
      <trkpt lat="42.932360" lon="1.238444">
        <ele>1081.6</ele>
        <time>2013-02-05T13:02:11Z</time>
      </trkpt>
      <trkpt lat="42.932424" lon="1.238370">
        <ele>1081.1</ele>
        <time>2013-02-05T13:02:19Z</time>
      </trkpt>
      <trkpt lat="42.932490" lon="1.238280">
        <ele>1080.2</ele>
        <time>2013-02-05T13:02:27Z</time>
      </trkpt>
      <trkpt lat="42.932560" lon="1.238183">
        <ele>1079.2</ele>
        <time>2013-02-05T13:02:35Z</time>
      </trkpt>
      <trkpt lat="42.932637" lon="1.238082">
        <ele>1078.3</ele>
        <time>2013-02-05T13:02:44Z</time>
      </trkpt>
      <trkpt lat="42.932719" lon="1.237998">
        <ele>1077.3</ele>
        <time>2013-02-05T13:02:53Z</time>
      </trkpt>
      <trkpt lat="42.932805" lon="1.237904">
        <ele>1076.8</ele>
        <time>2013-02-05T13:03:03Z</time>
      </trkpt>
      <trkpt lat="42.932866" lon="1.237808">
        <ele>1075.8</ele>
        <time>2013-02-05T13:03:11Z</time>
      </trkpt>
      <trkpt lat="42.932942" lon="1.237726">
        <ele>1074.9</ele>
        <time>2013-02-05T13:03:19Z</time>
      </trkpt>
      <trkpt lat="42.933002" lon="1.237651">
        <ele>1073.9</ele>
        <time>2013-02-05T13:03:26Z</time>
      </trkpt>
      <trkpt lat="42.933083" lon="1.237558">
        <ele>1071.5</ele>
        <time>2013-02-05T13:03:34Z</time>
      </trkpt>
      <trkpt lat="42.933154" lon="1.237462">
        <ele>1071.1</ele>
        <time>2013-02-05T13:03:42Z</time>
      </trkpt>
      <trkpt lat="42.933233" lon="1.237396">
        <ele>1069.1</ele>
        <time>2013-02-05T13:03:49Z</time>
      </trkpt>
      <trkpt lat="42.933292" lon="1.237301">
        <ele>1068.6</ele>
        <time>2013-02-05T13:03:56Z</time>
      </trkpt>
      <trkpt lat="42.933348" lon="1.237199">
        <ele>1068.2</ele>
        <time>2013-02-05T13:04:03Z</time>
      </trkpt>
      <trkpt lat="42.933429" lon="1.237115">
        <ele>1067.2</ele>
        <time>2013-02-05T13:04:11Z</time>
      </trkpt>
      <trkpt lat="42.933510" lon="1.237023">
        <ele>1067.2</ele>
        <time>2013-02-05T13:04:19Z</time>
      </trkpt>
      <trkpt lat="42.933581" lon="1.236932">
        <ele>1066.7</ele>
        <time>2013-02-05T13:04:27Z</time>
      </trkpt>
      <trkpt lat="42.933657" lon="1.236837">
        <ele>1065.3</ele>
        <time>2013-02-05T13:04:35Z</time>
      </trkpt>
      <trkpt lat="42.933731" lon="1.236730">
        <ele>1064.3</ele>
        <time>2013-02-05T13:04:44Z</time>
      </trkpt>
      <trkpt lat="42.933778" lon="1.236606">
        <ele>1063.4</ele>
        <time>2013-02-05T13:04:53Z</time>
      </trkpt>
      <trkpt lat="42.933786" lon="1.236442">
        <ele>1062.9</ele>
        <time>2013-02-05T13:05:04Z</time>
      </trkpt>
      <trkpt lat="42.933764" lon="1.236311">
        <ele>1061.9</ele>
        <time>2013-02-05T13:05:13Z</time>
      </trkpt>
      <trkpt lat="42.933735" lon="1.236180">
        <ele>1060.9</ele>
        <time>2013-02-05T13:05:22Z</time>
      </trkpt>
      <trkpt lat="42.933698" lon="1.236049">
        <ele>1060.5</ele>
        <time>2013-02-05T13:05:32Z</time>
      </trkpt>
      <trkpt lat="42.933671" lon="1.235904">
        <ele>1058.6</ele>
        <time>2013-02-05T13:05:43Z</time>
      </trkpt>
      <trkpt lat="42.933653" lon="1.235759">
        <ele>1057.6</ele>
        <time>2013-02-05T13:05:52Z</time>
      </trkpt>
      <trkpt lat="42.933637" lon="1.235630">
        <ele>1057.1</ele>
        <time>2013-02-05T13:06:01Z</time>
      </trkpt>
      <trkpt lat="42.933642" lon="1.235488">
        <ele>1056.2</ele>
        <time>2013-02-05T13:06:10Z</time>
      </trkpt>
      <trkpt lat="42.933652" lon="1.235347">
        <ele>1054.7</ele>
        <time>2013-02-05T13:06:20Z</time>
      </trkpt>
      <trkpt lat="42.933678" lon="1.235202">
        <ele>1053.7</ele>
        <time>2013-02-05T13:06:30Z</time>
      </trkpt>
      <trkpt lat="42.933740" lon="1.235056">
        <ele>1052.8</ele>
        <time>2013-02-05T13:06:40Z</time>
      </trkpt>
      <trkpt lat="42.933794" lon="1.234891">
        <ele>1051.3</ele>
        <time>2013-02-05T13:06:51Z</time>
      </trkpt>
      <trkpt lat="42.933859" lon="1.234745">
        <ele>1051.3</ele>
        <time>2013-02-05T13:07:02Z</time>
      </trkpt>
      <trkpt lat="42.933915" lon="1.234612">
        <ele>1049.9</ele>
        <time>2013-02-05T13:07:13Z</time>
      </trkpt>
      <trkpt lat="42.933990" lon="1.234504">
        <ele>1048.9</ele>
        <time>2013-02-05T13:07:22Z</time>
      </trkpt>
      <trkpt lat="42.934061" lon="1.234397">
        <ele>1048.0</ele>
        <time>2013-02-05T13:07:30Z</time>
      </trkpt>
      <trkpt lat="42.934127" lon="1.234310">
        <ele>1047.5</ele>
        <time>2013-02-05T13:07:38Z</time>
      </trkpt>
      <trkpt lat="42.934229" lon="1.234224">
        <ele>1046.5</ele>
        <time>2013-02-05T13:07:49Z</time>
      </trkpt>
      <trkpt lat="42.934312" lon="1.234142">
        <ele>1045.1</ele>
        <time>2013-02-05T13:07:59Z</time>
      </trkpt>
      <trkpt lat="42.934391" lon="1.234063">
        <ele>1044.1</ele>
        <time>2013-02-05T13:08:10Z</time>
      </trkpt>
      <trkpt lat="42.934470" lon="1.233967">
        <ele>1043.7</ele>
        <time>2013-02-05T13:08:20Z</time>
      </trkpt>
      <trkpt lat="42.934552" lon="1.233881">
        <ele>1043.2</ele>
        <time>2013-02-05T13:08:29Z</time>
      </trkpt>
      <trkpt lat="42.934604" lon="1.233753">
        <ele>1042.2</ele>
        <time>2013-02-05T13:08:39Z</time>
      </trkpt>
      <trkpt lat="42.934609" lon="1.233610">
        <ele>1041.2</ele>
        <time>2013-02-05T13:08:49Z</time>
      </trkpt>
      <trkpt lat="42.934584" lon="1.233461">
        <ele>1039.8</ele>
        <time>2013-02-05T13:08:59Z</time>
      </trkpt>
      <trkpt lat="42.934536" lon="1.233288">
        <ele>1038.8</ele>
        <time>2013-02-05T13:09:10Z</time>
      </trkpt>
      <trkpt lat="42.934566" lon="1.233094">
        <ele>1038.4</ele>
        <time>2013-02-05T13:09:21Z</time>
      </trkpt>
      <trkpt lat="42.934574" lon="1.232916">
        <ele>1037.4</ele>
        <time>2013-02-05T13:09:30Z</time>
      </trkpt>
      <trkpt lat="42.934585" lon="1.232749">
        <ele>1036.0</ele>
        <time>2013-02-05T13:09:39Z</time>
      </trkpt>
      <trkpt lat="42.934635" lon="1.232592">
        <ele>1034.5</ele>
        <time>2013-02-05T13:09:48Z</time>
      </trkpt>
      <trkpt lat="42.934693" lon="1.232443">
        <ele>1033.1</ele>
        <time>2013-02-05T13:09:58Z</time>
      </trkpt>
      <trkpt lat="42.934768" lon="1.232303">
        <ele>1032.1</ele>
        <time>2013-02-05T13:10:08Z</time>
      </trkpt>
      <trkpt lat="42.934830" lon="1.232181">
        <ele>1032.1</ele>
        <time>2013-02-05T13:10:17Z</time>
      </trkpt>
      <trkpt lat="42.934904" lon="1.232057">
        <ele>1031.2</ele>
        <time>2013-02-05T13:10:27Z</time>
      </trkpt>
      <trkpt lat="42.934990" lon="1.231938">
        <ele>1028.8</ele>
        <time>2013-02-05T13:10:37Z</time>
      </trkpt>
      <trkpt lat="42.935056" lon="1.231806">
        <ele>1028.3</ele>
        <time>2013-02-05T13:10:46Z</time>
      </trkpt>
      <trkpt lat="42.935126" lon="1.231693">
        <ele>1027.3</ele>
        <time>2013-02-05T13:10:54Z</time>
      </trkpt>
      <trkpt lat="42.935215" lon="1.231608">
        <ele>1026.3</ele>
        <time>2013-02-05T13:11:03Z</time>
      </trkpt>
      <trkpt lat="42.935310" lon="1.231537">
        <ele>1025.4</ele>
        <time>2013-02-05T13:11:12Z</time>
      </trkpt>
      <trkpt lat="42.935402" lon="1.231444">
        <ele>1023.9</ele>
        <time>2013-02-05T13:11:20Z</time>
      </trkpt>
      <trkpt lat="42.935486" lon="1.231351">
        <ele>1023.0</ele>
        <time>2013-02-05T13:11:28Z</time>
      </trkpt>
      <trkpt lat="42.935578" lon="1.231272">
        <ele>1022.0</ele>
        <time>2013-02-05T13:11:38Z</time>
      </trkpt>
      <trkpt lat="42.935665" lon="1.231178">
        <ele>1020.6</ele>
        <time>2013-02-05T13:11:46Z</time>
      </trkpt>
      <trkpt lat="42.935754" lon="1.231097">
        <ele>1019.6</ele>
        <time>2013-02-05T13:11:55Z</time>
      </trkpt>
      <trkpt lat="42.935844" lon="1.231007">
        <ele>1018.7</ele>
        <time>2013-02-05T13:12:04Z</time>
      </trkpt>
      <trkpt lat="42.935913" lon="1.230915">
        <ele>1018.2</ele>
        <time>2013-02-05T13:12:12Z</time>
      </trkpt>
      <trkpt lat="42.936007" lon="1.230845">
        <ele>1016.7</ele>
        <time>2013-02-05T13:12:20Z</time>
      </trkpt>
      <trkpt lat="42.936094" lon="1.230752">
        <ele>1016.2</ele>
        <time>2013-02-05T13:12:29Z</time>
      </trkpt>
      <trkpt lat="42.936159" lon="1.230661">
        <ele>1015.8</ele>
        <time>2013-02-05T13:12:37Z</time>
      </trkpt>
      <trkpt lat="42.936220" lon="1.230554">
        <ele>1014.8</ele>
        <time>2013-02-05T13:12:47Z</time>
      </trkpt>
      <trkpt lat="42.936290" lon="1.230425">
        <ele>1013.4</ele>
        <time>2013-02-05T13:12:57Z</time>
      </trkpt>
      <trkpt lat="42.936332" lon="1.230302">
        <ele>1012.9</ele>
        <time>2013-02-05T13:13:06Z</time>
      </trkpt>
      <trkpt lat="42.936385" lon="1.230160">
        <ele>1012.4</ele>
        <time>2013-02-05T13:13:17Z</time>
      </trkpt>
      <trkpt lat="42.936421" lon="1.230036">
        <ele>1011.4</ele>
        <time>2013-02-05T13:13:26Z</time>
      </trkpt>
      <trkpt lat="42.936450" lon="1.229912">
        <ele>1010.0</ele>
        <time>2013-02-05T13:13:36Z</time>
      </trkpt>
      <trkpt lat="42.936439" lon="1.229753">
        <ele>1009.0</ele>
        <time>2013-02-05T13:13:45Z</time>
      </trkpt>
      <trkpt lat="42.936431" lon="1.229614">
        <ele>1008.1</ele>
        <time>2013-02-05T13:13:55Z</time>
      </trkpt>
      <trkpt lat="42.936428" lon="1.229472">
        <ele>1007.1</ele>
        <time>2013-02-05T13:14:06Z</time>
      </trkpt>
      <trkpt lat="42.936444" lon="1.229314">
        <ele>1005.7</ele>
        <time>2013-02-05T13:14:17Z</time>
      </trkpt>
      <trkpt lat="42.936459" lon="1.229160">
        <ele>1005.2</ele>
        <time>2013-02-05T13:14:26Z</time>
      </trkpt>
      <trkpt lat="42.936467" lon="1.229024">
        <ele>1003.8</ele>
        <time>2013-02-05T13:14:35Z</time>
      </trkpt>
      <trkpt lat="42.936483" lon="1.228893">
        <ele>1002.8</ele>
        <time>2013-02-05T13:14:44Z</time>
      </trkpt>
      <trkpt lat="42.936486" lon="1.228764">
        <ele>1002.3</ele>
        <time>2013-02-05T13:14:53Z</time>
      </trkpt>
      <trkpt lat="42.936488" lon="1.228628">
        <ele>1001.3</ele>
        <time>2013-02-05T13:15:01Z</time>
      </trkpt>
      <trkpt lat="42.936493" lon="1.228496">
        <ele>1000.4</ele>
        <time>2013-02-05T13:15:09Z</time>
      </trkpt>
      <trkpt lat="42.936496" lon="1.228368">
        <ele>999.4</ele>
        <time>2013-02-05T13:15:17Z</time>
      </trkpt>
      <trkpt lat="42.936499" lon="1.228237">
        <ele>998.5</ele>
        <time>2013-02-05T13:15:25Z</time>
      </trkpt>
      <trkpt lat="42.936486" lon="1.228098">
        <ele>998.0</ele>
        <time>2013-02-05T13:15:33Z</time>
      </trkpt>
      <trkpt lat="42.936471" lon="1.227957">
        <ele>997.0</ele>
        <time>2013-02-05T13:15:42Z</time>
      </trkpt>
      <trkpt lat="42.936452" lon="1.227803">
        <ele>996.1</ele>
        <time>2013-02-05T13:15:51Z</time>
      </trkpt>
      <trkpt lat="42.936431" lon="1.227656">
        <ele>995.1</ele>
        <time>2013-02-05T13:16:02Z</time>
      </trkpt>
      <trkpt lat="42.936412" lon="1.227518">
        <ele>994.1</ele>
        <time>2013-02-05T13:16:12Z</time>
      </trkpt>
      <trkpt lat="42.936417" lon="1.227328">
        <ele>993.2</ele>
        <time>2013-02-05T13:16:24Z</time>
      </trkpt>
      <trkpt lat="42.936431" lon="1.227138">
        <ele>991.7</ele>
        <time>2013-02-05T13:16:37Z</time>
      </trkpt>
      <trkpt lat="42.936451" lon="1.226969">
        <ele>990.3</ele>
        <time>2013-02-05T13:16:48Z</time>
      </trkpt>
      <trkpt lat="42.936496" lon="1.226805">
        <ele>989.3</ele>
        <time>2013-02-05T13:16:59Z</time>
      </trkpt>
      <trkpt lat="42.936570" lon="1.226646">
        <ele>987.9</ele>
        <time>2013-02-05T13:17:10Z</time>
      </trkpt>
      <trkpt lat="42.936629" lon="1.226528">
        <ele>986.5</ele>
        <time>2013-02-05T13:17:18Z</time>
      </trkpt>
      <trkpt lat="42.936693" lon="1.226395">
        <ele>986.5</ele>
        <time>2013-02-05T13:17:26Z</time>
      </trkpt>
      <trkpt lat="42.936772" lon="1.226250">
        <ele>985.0</ele>
        <time>2013-02-05T13:17:36Z</time>
      </trkpt>
      <trkpt lat="42.936828" lon="1.226124">
        <ele>983.6</ele>
        <time>2013-02-05T13:17:45Z</time>
      </trkpt>
      <trkpt lat="42.936895" lon="1.225999">
        <ele>982.6</ele>
        <time>2013-02-05T13:17:55Z</time>
      </trkpt>
      <trkpt lat="42.936965" lon="1.225901">
        <ele>982.1</ele>
        <time>2013-02-05T13:18:04Z</time>
      </trkpt>
      <trkpt lat="42.937026" lon="1.225785">
        <ele>981.2</ele>
        <time>2013-02-05T13:18:14Z</time>
      </trkpt>
      <trkpt lat="42.937035" lon="1.225606">
        <ele>979.2</ele>
        <time>2013-02-05T13:18:25Z</time>
      </trkpt>
      <trkpt lat="42.937032" lon="1.225430">
        <ele>979.2</ele>
        <time>2013-02-05T13:18:35Z</time>
      </trkpt>
      <trkpt lat="42.936991" lon="1.225288">
        <ele>978.3</ele>
        <time>2013-02-05T13:18:45Z</time>
      </trkpt>
      <trkpt lat="42.936958" lon="1.225167">
        <ele>977.3</ele>
        <time>2013-02-05T13:18:53Z</time>
      </trkpt>
      <trkpt lat="42.936943" lon="1.225037">
        <ele>976.4</ele>
        <time>2013-02-05T13:19:03Z</time>
      </trkpt>
      <trkpt lat="42.936935" lon="1.224895">
        <ele>975.4</ele>
        <time>2013-02-05T13:19:13Z</time>
      </trkpt>
      <trkpt lat="42.936919" lon="1.224759">
        <ele>974.4</ele>
        <time>2013-02-05T13:19:22Z</time>
      </trkpt>
      <trkpt lat="42.936900" lon="1.224604">
        <ele>973.5</ele>
        <time>2013-02-05T13:19:33Z</time>
      </trkpt>
      <trkpt lat="42.936897" lon="1.224458">
        <ele>973.0</ele>
        <time>2013-02-05T13:19:47Z</time>
      </trkpt>
      <trkpt lat="42.936918" lon="1.224280">
        <ele>971.5</ele>
        <time>2013-02-05T13:19:56Z</time>
      </trkpt>
      <trkpt lat="42.936930" lon="1.224090">
        <ele>970.6</ele>
        <time>2013-02-05T13:20:06Z</time>
      </trkpt>
      <trkpt lat="42.936927" lon="1.223894">
        <ele>969.6</ele>
        <time>2013-02-05T13:20:17Z</time>
      </trkpt>
      <trkpt lat="42.936910" lon="1.223733">
        <ele>968.7</ele>
        <time>2013-02-05T13:20:29Z</time>
      </trkpt>
      <trkpt lat="42.936896" lon="1.223578">
        <ele>967.7</ele>
        <time>2013-02-05T13:20:40Z</time>
      </trkpt>
      <trkpt lat="42.936896" lon="1.223369">
        <ele>967.2</ele>
        <time>2013-02-05T13:20:54Z</time>
      </trkpt>
      <trkpt lat="42.936917" lon="1.223147">
        <ele>966.3</ele>
        <time>2013-02-05T13:21:13Z</time>
      </trkpt>
      <trkpt lat="42.937013" lon="1.223184">
        <ele>965.8</ele>
        <time>2013-02-05T13:21:26Z</time>
      </trkpt>
      <trkpt lat="42.937192" lon="1.223259">
        <ele>966.7</ele>
        <time>2013-02-05T13:21:57Z</time>
      </trkpt>
    </trkseg>
  </trk>
</gpx>

